M I D A S
Marine Information and Data Acquisition System
Tripno 1906 of the Zeeleeuw from 2010-06-23 07:12:48 to 2010-06-23 14:53:10
Back to CruiseResearch ActivitiesStationsMapUnderway DataData graphs

EquipmentUnitsComment
TimeDGPSUTC
LatitudeDGPSDM.mWGS84
LongitudeDGPSDM.mWGS84
TemperatureSBE03/SBE38deg celciusITS90
ConductivitySBE21S/mITS90
SalinitySBE21 Practical Salinity Units
ChlorophylAChelsea fluorimeterg/lCalibrated in Aceton
Missing or incorrect values are displayed as -999
Sea surface data collected by the RV Zeeleeuw from 2010-06-23 06:39:38 to 2010-06-23 14:55:23
                                                                                    Next 1000 lines
Time Latitude Longitude Temperature Conductivity Salinity ChlorophylA
2010-06-23 06:39:48 51°13.662 2°55.962 20.0854 0.049973 0.25808 -0.93092
2010-06-23 06:39:52 51°13.662 2°55.962 20.0853 0.050077 0.258629 -0.896096
2010-06-23 06:39:57 51°13.662 2°55.963 20.0838 0.050077 0.258629 -0.896096
2010-06-23 06:40:02 51°13.662 2°55.963 20.0843 0.050077 0.258633 -0.93092
2010-06-23 06:40:07 51°13.662 2°55.963 20.0853 0.049973 0.25808 -0.93092
2010-06-23 06:40:12 51°13.662 2°55.963 20.0852 0.050077 0.258629 -0.93092
2010-06-23 06:40:17 51°13.662 2°55.963 20.0829 0.049973 0.258088 -0.93092
2010-06-23 06:40:21 51°13.662 2°55.963 20.0838 0.050077 0.258637 -0.896096
2010-06-23 06:40:26 51°13.662 2°55.963 20.0852 0.050077 0.258637 -0.896096
2010-06-23 06:40:32 51°13.662 2°55.963 20.085 0.050077 0.258637 -0.93092
2010-06-23 06:40:36 51°13.662 2°55.963 20.0843 0.050077 0.258637 -0.896096
2010-06-23 06:40:41 51°13.662 2°55.963 20.0848 0.050077 0.258637 -0.93092
2010-06-23 06:40:46 51°13.662 2°55.963 20.0847 0.050181 0.259185 -0.93092
2010-06-23 06:40:51 51°13.662 2°55.963 20.0836 0.050077 0.25864 -0.93092
2010-06-23 06:40:57 51°13.662 2°55.963 20.0827 0.050077 0.25864 -0.93092
2010-06-23 06:41:01 51°13.662 2°55.963 20.0829 0.050077 0.25864 -0.93092
2010-06-23 06:41:06 51°13.662 2°55.963 20.0826 0.050077 0.258644 -0.896096
2010-06-23 06:41:11 51°13.662 2°55.963 20.0823 0.050181 0.259189 -0.93092
2010-06-23 06:41:17 51°13.662 2°55.963 20.084 0.050077 0.258644 -0.896096
2010-06-23 06:41:21 51°13.662 2°55.963 20.0855 0.050181 0.259193 -0.93092
2010-06-23 06:41:26 51°13.662 2°55.963 20.087 0.050181 0.259193 -0.93092
2010-06-23 06:41:31 51°13.662 2°55.963 20.0875 0.050181 0.259197 -0.93092
2010-06-23 06:41:37 51°13.662 2°55.963 20.0889 0.050181 0.259197 -0.896096
2010-06-23 06:41:42 51°13.662 2°55.963 20.0883 0.050077 0.258652 -0.896096
2010-06-23 06:41:46 51°13.662 2°55.963 20.0879 0.050077 0.258652 -0.965744
2010-06-23 06:41:51 51°13.662 2°55.963 20.0873 0.049973 0.258107 -0.93092
2010-06-23 06:41:57 51°13.662 2°55.963 20.0842 0.049973 0.258107 -0.93092
2010-06-23 06:42:02 51°13.662 2°55.963 20.0854 0.050077 0.258652 -0.93092
2010-06-23 06:42:06 51°13.662 2°55.963 20.0857 0.050077 0.258652 -0.93092
2010-06-23 06:42:11 51°13.662 2°55.963 20.086 0.050077 0.25866 -0.93092
2010-06-23 06:42:16 51°13.662 2°55.963 20.0845 0.050181 0.259205 -0.896096
2010-06-23 06:42:22 51°13.662 2°55.962 20.0848 0.050077 0.25866 -0.93092
2010-06-23 06:42:26 51°13.662 2°55.962 20.0854 0.050077 0.25866 -0.93092
2010-06-23 06:42:31 51°13.662 2°55.962 20.0864 0.050077 0.25866 -0.896096
2010-06-23 06:42:37 51°13.662 2°55.962 20.0853 0.050077 0.25866 -0.965744
2010-06-23 06:42:41 51°13.662 2°55.962 20.0848 0.049973 0.258111 -0.965744
2010-06-23 06:42:46 51°13.662 2°55.962 20.0843 0.050181 0.259212 -0.965744
2010-06-23 06:42:51 51°13.662 2°55.962 20.0852 0.050077 0.258663 -0.93092
2010-06-23 06:42:57 51°13.662 2°55.962 20.0844 0.050077 0.258663 -0.93092
2010-06-23 06:43:02 51°13.662 2°55.962 20.085 0.050077 0.258667 -0.93092
2010-06-23 06:43:06 51°13.662 2°55.962 20.0828 0.050077 0.258663 -0.93092
2010-06-23 06:43:11 51°13.662 2°55.962 20.0807 0.050077 0.258663 -0.93092
2010-06-23 06:43:17 51°13.662 2°55.962 20.0797 0.050181 0.25922 -0.93092
2010-06-23 06:43:21 51°13.662 2°55.962 20.0823 0.049973 0.258119 -0.93092
2010-06-23 06:43:26 51°13.662 2°55.962 20.083 0.049973 0.258119 -0.93092
2010-06-23 06:43:31 51°13.662 2°55.962 20.0849 0.050077 0.258667 -0.896096
2010-06-23 06:43:37 51°13.661 2°55.962 20.0863 0.050077 0.258667 -0.896096
2010-06-23 06:43:41 51°13.661 2°55.962 20.0858 0.050077 0.258671 -0.896096
2010-06-23 06:43:46 51°13.661 2°55.962 20.0876 0.050077 0.258675 -0.93092
2010-06-23 06:43:51 51°13.661 2°55.962 20.0868 0.050077 0.258675 -0.93092
2010-06-23 06:43:57 51°13.661 2°55.962 20.0869 0.050077 0.258675 -0.93092
2010-06-23 06:44:01 51°13.661 2°55.962 20.0882 0.050077 0.258675 -0.93092
2010-06-23 06:44:06 51°13.661 2°55.962 20.0883 0.049973 0.258126 -0.896096
2010-06-23 06:44:11 51°13.661 2°55.962 20.088 0.050077 0.258675 -0.93092
2010-06-23 06:44:17 51°13.661 2°55.961 20.0881 0.049869 0.257578 -0.93092
2010-06-23 06:44:22 51°13.661 2°55.962 20.0903 0.050077 0.258679 -0.965744
2010-06-23 06:44:26 51°13.661 2°55.962 20.0912 0.050077 0.258679 -0.965744
2010-06-23 06:44:31 51°13.661 2°55.962 20.0916 0.049973 0.258134 -0.896096
2010-06-23 06:44:36 51°13.662 2°55.962 20.0915 0.050077 0.258683 -0.93092
2010-06-23 06:44:42 51°13.662 2°55.962 20.092 0.050077 0.258683 -0.896096
2010-06-23 06:44:46 51°13.662 2°55.962 20.0908 0.050077 0.258686 -0.896096
2010-06-23 06:44:51 51°13.662 2°55.961 20.0883 0.050077 0.258683 -0.93092
2010-06-23 06:44:57 51°13.662 2°55.961 20.0884 0.050077 0.258683 -0.93092
2010-06-23 06:45:01 51°13.662 2°55.961 20.0894 0.050077 0.258686 -0.93092
2010-06-23 06:45:06 51°13.662 2°55.961 20.0901 0.049973 0.258138 -0.93092
2010-06-23 06:45:11 51°13.662 2°55.961 20.0895 0.049973 0.258138 -0.93092
2010-06-23 06:45:16 51°13.662 2°55.961 20.09 0.050077 0.258686 -0.896096
2010-06-23 06:45:21 51°13.662 2°55.961 20.0909 0.049973 0.258142 -0.93092
2010-06-23 06:45:26 51°13.662 2°55.961 20.0912 0.049973 0.258142 -0.93092
2010-06-23 06:45:31 51°13.662 2°55.961 20.0929 0.049973 0.258142 -0.93092
2010-06-23 06:45:36 51°13.661 2°55.961 20.0937 0.050077 0.25869 -0.93092
2010-06-23 06:45:41 51°13.661 2°55.961 20.0938 0.049973 0.258145 -0.93092
2010-06-23 06:45:46 51°13.661 2°55.961 20.0929 0.049973 0.258145 -0.896096
2010-06-23 06:45:51 51°13.661 2°55.961 20.0939 0.049973 0.258145 -0.896096
2010-06-23 06:45:56 51°13.661 2°55.961 20.093 0.049973 0.258145 -0.896096
2010-06-23 06:46:01 51°13.661 2°55.961 20.0956 0.049869 0.257597 -0.896096
2010-06-23 06:46:06 51°13.661 2°55.961 20.0963 0.049973 0.258149 -0.93092
2010-06-23 06:46:11 51°13.662 2°55.961 20.0979 0.049557 0.255955 -0.896096
2010-06-23 06:46:16 51°13.662 2°55.961 20.0981 0.049661 0.256507 -0.896096
2010-06-23 06:46:22 51°13.661 2°55.961 20.0963 0.049661 0.256503 -0.93092
2010-06-23 06:46:26 51°13.661 2°55.961 20.0929 0.049661 0.256503 -0.93092
2010-06-23 06:46:31 51°13.661 2°55.961 20.0891 0.049661 0.256503 -0.93092
2010-06-23 06:46:36 51°13.661 2°55.961 20.0848 0.049869 0.257604 -0.93092
2010-06-23 06:46:42 51°13.661 2°55.961 20.0845 0.049765 0.257056 -0.93092
2010-06-23 06:46:46 51°13.661 2°55.961 20.0857 0.049869 0.257604 -0.93092
2010-06-23 06:46:51 51°13.661 2°55.961 20.0868 0.049973 0.258153 -0.93092
2010-06-23 06:46:56 51°13.661 2°55.961 20.088 0.049973 0.258153 -0.93092
2010-06-23 06:47:02 51°13.661 2°55.961 20.0929 0.049869 0.257608 -0.93092
2010-06-23 06:47:06 51°13.661 2°55.961 20.1028 0.049869 0.257608 -0.93092
2010-06-23 06:47:11 51°13.661 2°55.961 20.1052 0.049973 0.258161 -0.93092
2010-06-23 06:47:16 51°13.661 2°55.961 20.1042 0.049765 0.257063 -0.93092
2010-06-23 06:47:21 51°13.661 2°55.961 20.0925 0.050077 0.258709 -0.93092
2010-06-23 06:47:26 51°13.661 2°55.961 20.0894 0.050077 0.258709 -0.93092
2010-06-23 06:47:31 51°13.661 2°55.961 20.0895 0.049765 0.257063 -0.896096
2010-06-23 06:47:36 51°13.661 2°55.961 20.0893 0.049869 0.257612 -0.93092
2010-06-23 06:47:41 51°13.661 2°55.961 20.0901 0.049869 0.257616 -0.896096
2010-06-23 06:47:46 51°13.661 2°55.961 20.0907 0.049765 0.257067 -0.965744
2010-06-23 06:47:51 51°13.661 2°55.961 20.0921 0.049973 0.258168 -0.93092
2010-06-23 06:47:56 51°13.661 2°55.961 20.0936 0.049973 0.258168 -0.93092
2010-06-23 06:48:01 51°13.662 2°55.961 20.0936 0.049869 0.257616 -0.93092
2010-06-23 06:48:06 51°13.662 2°55.961 20.0949 0.049973 0.258172 -0.93092
2010-06-23 06:48:11 51°13.662 2°55.961 20.0948 0.049973 0.258168 -0.896096
2010-06-23 06:48:16 51°13.662 2°55.961 20.0937 0.049869 0.257623 -0.93092
2010-06-23 06:48:21 51°13.662 2°55.961 20.0944 0.049973 0.258172 -0.93092
2010-06-23 06:48:26 51°13.661 2°55.961 20.0954 0.049973 0.258172 -0.93092
2010-06-23 06:48:31 51°13.662 2°55.961 20.0957 0.049869 0.257627 -0.93092
2010-06-23 06:48:37 51°13.661 2°55.961 20.095 0.049869 0.257627 -0.93092
2010-06-23 06:48:41 51°13.661 2°55.961 20.0954 0.049765 0.257079 -0.93092
2010-06-23 06:48:46 51°13.661 2°55.961 20.0958 0.049869 0.257627 -0.896096
2010-06-23 06:48:51 51°13.661 2°55.961 20.0961 0.049869 0.257627 -0.896096
2010-06-23 06:48:57 51°13.661 2°55.961 20.0941 0.049869 0.257627 -0.896096
2010-06-23 06:49:01 51°13.661 2°55.961 20.0974 0.049869 0.257631 -0.93092
2010-06-23 06:49:06 51°13.661 2°55.961 20.099 0.049973 0.25818 -0.93092
2010-06-23 06:49:11 51°13.661 2°55.961 20.0974 0.049869 0.257631 -0.93092
2010-06-23 06:49:16 51°13.661 2°55.961 20.099 0.049661 0.256534 -0.93092
2010-06-23 06:49:22 51°13.661 2°55.961 20.1007 0.049869 0.257635 -0.93092
2010-06-23 06:49:26 51°13.661 2°55.961 20.1017 0.049869 0.257635 -0.93092
2010-06-23 06:49:31 51°13.661 2°55.961 20.1034 0.049869 0.257635 -0.965744
2010-06-23 06:49:36 51°13.661 2°55.961 20.1057 0.049869 0.257635 -0.896096
2010-06-23 06:49:41 51°13.661 2°55.961 20.1095 0.049765 0.257086 -0.93092
2010-06-23 06:49:46 51°13.661 2°55.961 20.1243 0.049765 0.25709 -0.896096
2010-06-23 06:49:51 51°13.661 2°55.961 20.1337 0.049765 0.25709 -0.93092
2010-06-23 06:49:56 51°13.661 2°55.961 20.1372 0.049765 0.25709 -0.93092
2010-06-23 06:50:01 51°13.662 2°55.961 20.1317 0.049453 0.255448 -0.965744
2010-06-23 06:50:06 51°13.661 2°55.962 20.1302 0.049557 0.255997 -0.93092
2010-06-23 06:50:11 51°13.661 2°55.962 20.124 0.049765 0.257094 -0.93092
2010-06-23 06:50:16 51°13.661 2°55.962 20.1104 0.049869 0.257643 -0.93092
2010-06-23 06:50:21 51°13.661 2°55.962 20.1059 0.049973 0.258199 -0.93092
2010-06-23 06:50:26 51°13.661 2°55.962 20.11 0.049973 0.258199 -0.93092
2010-06-23 06:50:31 51°13.661 2°55.962 20.1114 0.050181 0.259293 -0.93092
2010-06-23 06:50:36 51°13.662 2°55.962 20.1117 0.050181 0.259297 -0.93092
2010-06-23 06:50:41 51°13.662 2°55.962 20.1125 0.050077 0.258748 -0.93092
2010-06-23 06:50:46 51°13.662 2°55.962 20.1113 0.050077 0.258752 -0.93092
2010-06-23 06:50:51 51°13.662 2°55.962 20.1111 0.049869 0.25765 -0.896096
2010-06-23 06:50:56 51°13.662 2°55.962 20.1085 0.049869 0.25765 -0.896096
2010-06-23 06:51:01 51°13.662 2°55.962 20.1072 0.049973 0.258203 -0.896096
2010-06-23 06:51:06 51°13.662 2°55.962 20.1068 0.049973 0.258199 -0.93092
2010-06-23 06:51:10 51°13.662 2°55.962 20.1069 0.049869 0.25765 -0.93092
2010-06-23 06:51:16 51°13.662 2°55.962 20.1083 0.050077 0.258752 -0.93092
2010-06-23 06:51:21 51°13.662 2°55.962 20.1088 0.050077 0.258752 -0.896096
2010-06-23 06:51:26 51°13.662 2°55.962 20.1087 0.050077 0.258752 -0.896096
2010-06-23 06:51:30 51°13.662 2°55.962 20.1103 0.050077 0.258756 -0.896096
2010-06-23 06:51:37 51°13.661 2°55.962 20.1127 0.050077 0.258759 -0.93092
2010-06-23 06:51:42 51°13.662 2°55.962 20.1138 0.050077 0.258756 -0.896096
2010-06-23 06:51:46 51°13.661 2°55.962 20.1143 0.049973 0.258207 -0.93092
2010-06-23 06:51:50 51°13.661 2°55.962 20.1167 0.050077 0.258759 -0.93092
2010-06-23 06:51:56 51°13.661 2°55.962 20.1174 0.050077 0.258759 -0.93092
2010-06-23 06:52:01 51°13.661 2°55.962 20.1182 0.049973 0.25821 -0.93092
2010-06-23 06:52:06 51°13.661 2°55.962 20.1198 0.049973 0.25821 -0.93092
2010-06-23 06:52:10 51°13.661 2°55.962 20.1196 0.050077 0.258763 -0.93092
2010-06-23 06:52:16 51°13.661 2°55.962 20.1206 0.050077 0.258759 -0.93092
2010-06-23 06:52:21 51°13.661 2°55.962 20.1208 0.050181 0.259316 -0.93092
2010-06-23 06:52:26 51°13.661 2°55.962 20.1215 0.050181 0.259316 -0.93092
2010-06-23 06:52:30 51°13.661 2°55.962 20.1294 0.050077 0.258763 -0.93092
2010-06-23 06:52:36 51°13.661 2°55.962 20.1378 0.050181 0.259316 -0.93092
2010-06-23 06:52:42 51°13.661 2°55.962 20.1384 0.050077 0.258771 -0.93092
2010-06-23 06:52:47 51°13.661 2°55.962 20.1374 0.050285 0.259873 -0.93092
2010-06-23 06:52:51 51°13.66 2°55.962 20.1349 0.050181 0.25932 -0.93092
2010-06-23 06:52:56 51°13.66 2°55.962 20.1344 0.050181 0.25932 -0.93092
2010-06-23 06:53:01 51°13.66 2°55.962 20.1342 0.050181 0.259324 -0.896096
2010-06-23 06:53:07 51°13.66 2°55.962 20.1336 0.050285 0.259873 -0.93092
2010-06-23 06:53:11 51°13.66 2°55.962 20.1318 0.050181 0.259324 -0.93092
2010-06-23 06:53:16 51°13.66 2°55.962 20.1261 0.050077 0.258775 -0.93092
2010-06-23 06:53:21 51°13.66 2°55.962 20.1082 0.050285 0.259877 -0.93092
2010-06-23 06:53:27 51°13.66 2°55.962 20.0985 0.050285 0.259877 -0.93092
2010-06-23 06:53:31 51°13.66 2°55.962 20.098 0.050181 0.25932 -0.896096
2010-06-23 06:53:36 51°13.66 2°55.961 20.1006 0.049141 0.253833 -0.93092
2010-06-23 06:53:42 51°13.66 2°55.959 20.0673 0.049765 0.257124 -0.93092
2010-06-23 06:53:47 51°13.661 2°55.958 20.0613 0.049765 0.257121 -0.93092
2010-06-23 06:53:51 51°13.661 2°55.956 20.0826 0.048517 0.25054 -0.93092
2010-06-23 06:53:57 51°13.663 2°55.953 20.0764 0.048517 0.25054 -0.93092
2010-06-23 06:54:01 51°13.663 2°55.95 20.1196 0.047581 0.245611 -0.93092
2010-06-23 06:54:07 51°13.665 2°55.946 20.1053 0.049661 0.256576 -0.93092
2010-06-23 06:54:13 51°13.667 2°55.941 20.1228 0.051326 0.26537 -0.93092
2010-06-23 06:54:19 51°13.669 2°55.935 20.1179 0.050909 0.263176 -0.93092
2010-06-23 06:54:24 51°13.67 2°55.929 20.112 0.050701 0.262081 -0.93092
2010-06-23 06:54:30 51°13.672 2°55.923 20.1061 0.050701 0.262081 -0.93092
2010-06-23 06:54:35 51°13.674 2°55.917 20.1096 0.050285 0.259884 -0.965744
2010-06-23 06:54:40 51°13.676 2°55.91 20.1079 0.050493 0.260983 -0.93092
2010-06-23 06:54:45 51°13.677 2°55.903 20.1122 0.049037 0.253304 -0.93092
2010-06-23 06:54:50 51°13.679 2°55.896 20.1121 0.049973 0.258237 -0.896096
2010-06-23 06:54:55 51°13.681 2°55.888 20.1143 0.051117 0.264283 -0.93092
2010-06-23 06:55:00 51°13.683 2°55.88 20.1202 0.051117 0.264283 -0.93092
2010-06-23 06:55:05 51°13.684 2°55.872 20.1255 0.050493 0.260983 -0.93092
2010-06-23 06:55:10 51°13.686 2°55.864 20.124 0.050701 0.262085 -0.93092
2010-06-23 06:55:15 51°13.687 2°55.856 20.1248 0.050597 0.26154 -0.965744
2010-06-23 06:55:20 51°13.689 2°55.847 20.1255 0.050389 0.260441 -0.896096
2010-06-23 06:55:25 51°13.69 2°55.838 20.1253 0.051118 0.264295 -0.93092
2010-06-23 06:55:30 51°13.691 2°55.83 20.1256 0.051118 0.264295 -0.93092
2010-06-23 06:55:35 51°13.692 2°55.821 20.1258 0.050389 0.260445 -0.93092
2010-06-23 06:55:40 51°13.693 2°55.812 20.1276 0.050701 0.262093 -0.93092
2010-06-23 06:55:45 51°13.694 2°55.803 20.128 0.050909 0.263195 -0.93092
2010-06-23 06:55:50 51°13.695 2°55.795 20.1274 0.050909 0.263195 -0.93092
2010-06-23 06:55:55 51°13.696 2°55.787 20.1349 0.051013 0.263745 -0.93092
2010-06-23 06:56:00 51°13.696 2°55.78 20.1374 0.051013 0.263745 -0.93092
2010-06-23 06:56:05 51°13.697 2°55.772 20.1305 0.051222 0.264844 -0.93092
2010-06-23 06:56:10 51°13.697 2°55.765 20.1287 0.05143 0.265952 -0.93092
2010-06-23 06:56:15 51°13.697 2°55.758 20.1281 0.051222 0.264848 -0.93092
2010-06-23 06:56:19 51°13.697 2°55.753 20.126 0.050077 0.258805 -0.896096
2010-06-23 06:56:24 51°13.697 2°55.746 20.1424 0.050493 0.260998 -0.93092
2010-06-23 06:56:30 51°13.697 2°55.739 20.136 0.050493 0.260998 -0.93092
2010-06-23 06:56:35 51°13.697 2°55.734 20.1489 0.051534 0.266497 -0.896096
2010-06-23 06:56:39 51°13.697 2°55.731 20.1534 0.052262 0.270352 -0.93092
2010-06-23 06:56:44 51°13.697 2°55.728 20.153 0.05195 0.268705 -0.93092
2010-06-23 06:56:49 51°13.697 2°55.727 20.1531 0.052262 0.270364 -0.93092
2010-06-23 06:56:54 51°13.698 2°55.727 20.1689 0.052366 0.270918 -0.896096
2010-06-23 06:56:59 51°13.699 2°55.727 20.1774 0.052366 0.270918 -0.896096
2010-06-23 06:57:04 51°13.699 2°55.729 20.1856 0.05299 0.274238 -0.896096
2010-06-23 06:57:09 51°13.701 2°55.731 20.1906 0.053094 0.274797 -0.93092
2010-06-23 06:57:14 51°13.703 2°55.734 20.1698 0.053094 0.274805 -0.965744
2010-06-23 06:57:19 51°13.706 2°55.736 20.1733 0.052886 0.273704 -0.965744
2010-06-23 06:57:23 51°13.708 2°55.737 20.1668 0.052158 0.269838 -0.93092
2010-06-23 06:57:28 51°13.71 2°55.739 20.1617 0.052158 0.269838 -0.93092
2010-06-23 06:57:33 51°13.713 2°55.741 20.1346 0.052782 0.273141 -0.93092
2010-06-23 06:57:39 51°13.716 2°55.742 20.0653 0.05247 0.271477 -0.93092
2010-06-23 06:57:43 51°13.719 2°55.742 20.0671 0.049765 0.257174 -0.93092
2010-06-23 06:57:48 51°13.721 2°55.743 20.076 0.049453 0.255513 -0.93092
2010-06-23 06:57:53 51°13.722 2°55.743 20.0855 0.049661 0.25661 -0.896096
2010-06-23 06:57:58 51°13.723 2°55.744 20.1035 0.049661 0.25661 -0.896096
2010-06-23 06:58:03 51°13.723 2°55.744 20.0235 0.050389 0.260453 -0.896096
2010-06-23 06:58:08 51°13.723 2°55.744 20.0597 0.050181 0.259362 -0.93092
2010-06-23 06:58:13 51°13.722 2°55.744 20.1261 0.0455 0.234705 -0.93092
2010-06-23 06:58:18 51°13.721 2°55.743 20.1195 0.051846 0.268151 -0.93092
2010-06-23 06:58:23 51°13.72 2°55.744 20.138 0.053198 0.275319 -0.896096
2010-06-23 06:58:27 51°13.719 2°55.744 20.141 0.053198 0.275319 -0.896096
2010-06-23 06:58:33 51°13.718 2°55.744 20.1436 0.052054 0.269264 -0.896096
2010-06-23 06:58:39 51°13.718 2°55.744 20.1436 0.052054 0.269264 -0.93092
2010-06-23 06:58:44 51°13.719 2°55.744 20.1442 0.052158 0.269818 -0.93092
2010-06-23 06:58:50 51°13.72 2°55.744 20.1451 0.05195 0.268717 -0.896096
2010-06-23 06:58:55 51°13.721 2°55.743 20.1533 0.052054 0.269276 -0.93092
2010-06-23 06:59:00 51°13.722 2°55.742 20.1574 0.052054 0.269276 -0.93092
2010-06-23 06:59:05 51°13.725 2°55.741 20.1593 0.052574 0.272036 -0.896096
2010-06-23 06:59:10 51°13.727 2°55.739 20.1588 0.051742 0.267641 -0.965744
2010-06-23 06:59:15 51°13.73 2°55.736 20.1589 0.05195 0.268745 -0.93092
2010-06-23 06:59:19 51°13.732 2°55.734 20.1566 0.051118 0.264338 -0.965744
2010-06-23 06:59:24 51°13.736 2°55.73 20.1562 0.051638 0.267071 -0.93092
2010-06-23 06:59:29 51°13.74 2°55.726 20.1478 0.051638 0.267071 -0.93092
2010-06-23 06:59:34 51°13.744 2°55.722 20.1371 0.05143 0.265967 -0.93092
2010-06-23 06:59:39 51°13.748 2°55.717 20.1178 0.050909 0.263215 -0.896096
2010-06-23 06:59:43 51°13.752 2°55.713 20.1099 0.050077 0.258821 -0.93092
2010-06-23 06:59:48 51°13.757 2°55.707 20.0518 0.049765 0.257174 -0.93092
2010-06-23 06:59:53 51°13.761 2°55.702 20.0436 0.048205 0.248952 -0.93092
2010-06-23 06:59:58 51°13.766 2°55.697 20.0745 0.048205 0.248952 -0.93092
2010-06-23 07:00:03 51°13.771 2°55.691 20.1039 0.049245 0.254442 -0.93092
2010-06-23 07:00:07 51°13.776 2°55.686 20.0749 0.049973 0.258287 -0.93092
2010-06-23 07:00:12 51°13.782 2°55.68 20.049 0.047893 0.24732 -0.93092
2010-06-23 07:00:17 51°13.788 2°55.673 20.0428 0.047893 0.247316 -0.93092
2010-06-23 07:00:22 51°13.794 2°55.667 20.0536 0.049037 0.253341 -0.93092
2010-06-23 07:00:27 51°13.801 2°55.661 20.0512 0.049037 0.253341 -0.93092
2010-06-23 07:00:31 51°13.806 2°55.657 20.0242 0.047269 0.244024 -0.896096
2010-06-23 07:00:37 51°13.814 2°55.651 20.033 0.046333 0.239097 -0.896096
2010-06-23 07:00:42 51°13.821 2°55.647 20.0209 0.04446 0.229264 -0.93092
2010-06-23 07:00:47 51°13.828 2°55.644 20.0029 0.049661 0.256625 -0.965744
2010-06-23 07:00:51 51°13.833 2°55.641 20.0092 0.047789 0.246765 -0.896096
2010-06-23 07:00:56 51°13.84 2°55.639 20.0156 0.047789 0.246765 -0.896096
2010-06-23 07:01:01 51°13.846 2°55.637 20.027 0.047893 0.24732 -0.965744
2010-06-23 07:01:06 51°13.852 2°55.635 20.0476 0.048309 0.249515 -0.93092
2010-06-23 07:01:11 51°13.858 2°55.634 20.0636 0.048413 0.250066 -0.896096
2010-06-23 07:01:16 51°13.864 2°55.633 20.1049 0.049869 0.25775 -0.93092
2010-06-23 07:01:21 51°13.87 2°55.633 20.1118 0.048933 0.252815 -0.93092
2010-06-23 07:01:26 51°13.875 2°55.633 20.1042 0.048933 0.252815 -0.93092
2010-06-23 07:01:31 51°13.881 2°55.633 20.101 0.048621 0.25117 -0.93092
2010-06-23 07:01:36 51°13.886 2°55.633 20.1033 0.049973 0.25831 -0.93092
2010-06-23 07:01:41 51°13.891 2°55.634 20.1057 0.049453 0.255562 -0.896096
2010-06-23 07:01:46 51°13.896 2°55.634 20.1066 0.049869 0.257757 -0.93092
2010-06-23 07:01:51 51°13.901 2°55.635 20.1232 0.049869 0.257761 -0.93092
2010-06-23 07:01:55 51°13.904 2°55.635 20.1481 0.049869 0.257761 -0.93092
2010-06-23 07:02:01 51°13.91 2°55.636 20.1613 0.050493 0.261056 -0.93092
2010-06-23 07:02:06 51°13.915 2°55.637 20.134 0.051222 0.264911 -0.93092
2010-06-23 07:02:11 51°13.92 2°55.638 20.1349 0.051742 0.267669 -0.93092
2010-06-23 07:02:16 51°13.925 2°55.639 20.1227 0.051534 0.266565 -0.93092
2010-06-23 07:02:21 51°13.93 2°55.639 20.1237 0.050389 0.260515 -0.965744
2010-06-23 07:02:26 51°13.934 2°55.64 20.1517 0.050389 0.260515 -0.965744
2010-06-23 07:02:31 51°13.938 2°55.64 20.1736 0.050805 0.262705 -0.93092
2010-06-23 07:02:36 51°13.941 2°55.64 20.171 0.05195 0.268769 -0.93092
2010-06-23 07:02:41 51°13.944 2°55.639 20.164 0.05143 0.266023 -0.93092
2010-06-23 07:02:46 51°13.946 2°55.639 20.1615 0.051118 0.264377 -0.93092
2010-06-23 07:02:51 51°13.949 2°55.638 20.157 0.052054 0.269328 -0.93092
2010-06-23 07:02:55 51°13.951 2°55.638 20.1568 0.052054 0.269328 -0.93092
2010-06-23 07:03:01 51°13.953 2°55.637 20.1568 0.051222 0.264927 -0.93092
2010-06-23 07:03:06 51°13.955 2°55.636 20.157 0.051742 0.267681 -0.896096
2010-06-23 07:03:11 51°13.957 2°55.635 20.1554 0.051638 0.267127 -0.93092
2010-06-23 07:03:16 51°13.959 2°55.634 20.1553 0.051846 0.268227 -0.93092
2010-06-23 07:03:21 51°13.961 2°55.633 20.1557 0.05143 0.266023 -0.93092
2010-06-23 07:03:26 51°13.963 2°55.632 20.1563 0.05143 0.266023 -0.93092
2010-06-23 07:03:31 51°13.965 2°55.631 20.157 0.05143 0.266023 -0.93092
2010-06-23 07:03:35 51°13.966 2°55.63 20.1545 0.05143 0.266023 -0.896096
2010-06-23 07:03:41 51°13.968 2°55.629 20.154 0.051534 0.266577 -0.965744
2010-06-23 07:03:46 51°13.97 2°55.628 20.1537 0.051013 0.263831 -0.93092
2010-06-23 07:03:51 51°13.972 2°55.626 20.1543 0.051222 0.264927 -0.896096
2010-06-23 07:03:55 51°13.973 2°55.626 20.1519 0.051222 0.264927 -0.896096
2010-06-23 07:04:01 51°13.975 2°55.624 20.1501 0.051222 0.264927 -0.93092
2010-06-23 07:04:06 51°13.977 2°55.623 20.1491 0.051326 0.265477 -0.93092
2010-06-23 07:04:11 51°13.978 2°55.622 20.1508 0.050805 0.262728 -0.93092
2010-06-23 07:04:16 51°13.979 2°55.621 20.1515 0.051638 0.267131 -0.965744
2010-06-23 07:04:21 51°13.981 2°55.62 20.1407 0.051326 0.265485 -0.896096
2010-06-23 07:04:26 51°13.982 2°55.619 20.128 0.051326 0.265485 -0.896096
2010-06-23 07:04:31 51°13.983 2°55.618 20.1341 0.050389 0.260542 -0.93092
2010-06-23 07:04:36 51°13.985 2°55.617 20.1538 0.051742 0.267689 -0.93092
2010-06-23 07:04:41 51°13.986 2°55.616 20.1617 0.051846 0.268243 -0.965744
2010-06-23 07:04:46 51°13.987 2°55.615 20.1632 0.051534 0.266596 -0.93092
2010-06-23 07:04:51 51°13.988 2°55.614 20.1618 0.051846 0.268247 -0.896096
2010-06-23 07:04:56 51°13.989 2°55.614 20.1614 0.051846 0.268247 -0.896096
2010-06-23 07:05:01 51°13.989 2°55.613 20.1597 0.05195 0.268797 -0.896096
2010-06-23 07:05:06 51°13.991 2°55.612 20.1593 0.051013 0.263847 -0.93092
2010-06-23 07:05:11 51°13.991 2°55.611 20.1583 0.05143 0.266054 -0.93092
2010-06-23 07:05:16 51°13.992 2°55.61 20.1395 0.05143 0.266054 -0.965744
2010-06-23 07:05:21 51°13.993 2°55.609 20.135 0.050597 0.261656 -0.896096
2010-06-23 07:05:26 51°13.994 2°55.609 20.1402 0.050597 0.261656 -0.896096
2010-06-23 07:05:31 51°13.994 2°55.608 20.1411 0.050701 0.262206 -0.93092
2010-06-23 07:05:35 51°13.995 2°55.608 20.148 0.051013 0.263855 -0.93092
2010-06-23 07:05:41 51°13.995 2°55.608 20.1516 0.051118 0.264405 -0.93092
2010-06-23 07:05:46 51°13.996 2°55.607 20.1614 0.051742 0.267709 -0.93092
2010-06-23 07:05:51 51°13.996 2°55.606 20.1645 0.051013 0.263863 -0.93092
2010-06-23 07:05:56 51°13.997 2°55.606 20.1592 0.051013 0.263863 -0.93092
2010-06-23 07:06:01 51°13.998 2°55.605 20.1506 0.051742 0.267713 -0.896096
2010-06-23 07:06:06 51°13.998 2°55.605 20.1509 0.050701 0.262213 -0.93092
2010-06-23 07:06:11 51°13.998 2°55.604 20.1478 0.051222 0.264962 -0.93092
2010-06-23 07:06:16 51°13.999 2°55.604 20.1653 0.051638 0.267162 -0.93092
2010-06-23 07:06:20 51°13.999 2°55.604 20.1597 0.051638 0.267166 -0.965744
2010-06-23 07:06:26 51°13.999 2°55.604 20.1648 0.051638 0.267166 -0.965744
2010-06-23 07:06:31 51°14 2°55.604 20.1673 0.050909 0.263317 -0.965744
2010-06-23 07:06:37 51°14 2°55.604 20.1667 0.051846 0.268271 -0.861272
2010-06-23 07:06:42 51°14 2°55.603 20.1666 0.05143 0.26607 -0.896096
2010-06-23 07:06:46 51°14.001 2°55.603 20.167 0.051638 0.26717 -0.93092
2010-06-23 07:06:51 51°14.001 2°55.603 20.1646 0.051118 0.264424 -0.93092
2010-06-23 07:06:56 51°14.001 2°55.603 20.1664 0.051118 0.264424 -0.93092
2010-06-23 07:07:02 51°14.001 2°55.603 20.1679 0.051118 0.26442 -0.93092
2010-06-23 07:07:06 51°14.002 2°55.603 20.1679 0.051013 0.263874 -0.93092
2010-06-23 07:07:11 51°14.002 2°55.603 20.1686 0.051118 0.264428 -0.93092
2010-06-23 07:07:15 51°14.002 2°55.603 20.1688 0.051534 0.266628 -0.93092
2010-06-23 07:07:20 51°14.002 2°55.603 20.1691 0.051534 0.266628 -0.93092
2010-06-23 07:07:26 51°14.002 2°55.604 20.1682 0.051534 0.266628 -0.93092
2010-06-23 07:07:31 51°14.002 2°55.604 20.1681 0.05143 0.266082 -0.93092
2010-06-23 07:07:36 51°14.002 2°55.604 20.1711 0.051638 0.267178 -0.896096
2010-06-23 07:07:41 51°14.002 2°55.604 20.1719 0.050597 0.261679 -0.93092
2010-06-23 07:07:46 51°14.002 2°55.604 20.1726 0.051534 0.266636 -0.93092
2010-06-23 07:07:52 51°14.003 2°55.604 20.1731 0.051534 0.266636 -0.965744
2010-06-23 07:07:55 51°14.003 2°55.604 20.2035 0.051534 0.266636 -0.965744
2010-06-23 07:08:01 51°14.004 2°55.603 20.2267 0.051846 0.268291 -0.965744
2010-06-23 07:08:06 51°14.005 2°55.601 20.2326 0.05247 0.271602 -0.93092
2010-06-23 07:08:12 51°14.007 2°55.598 20.2262 0.052782 0.273263 -0.93092
2010-06-23 07:08:16 51°14.009 2°55.596 20.2203 0.052782 0.273263 -0.93092
2010-06-23 07:08:21 51°14.012 2°55.592 20.2188 0.052574 0.272161 -0.93092
2010-06-23 07:08:26 51°14.016 2°55.587 20.2193 0.052574 0.272161 -0.93092
2010-06-23 07:08:31 51°14.019 2°55.582 20.2185 0.052262 0.270505 -0.896096
2010-06-23 07:08:36 51°14.023 2°55.575 20.2127 0.052366 0.271052 -0.93092
2010-06-23 07:08:41 51°14.028 2°55.569 20.1812 0.052158 0.26995 -0.93092
2010-06-23 07:08:46 51°14.032 2°55.561 20.1655 0.051742 0.267745 -0.965744
2010-06-23 07:08:51 51°14.038 2°55.553 20.1726 0.050701 0.262241 -0.93092
2010-06-23 07:08:56 51°14.043 2°55.544 20.1737 0.050701 0.262241 -0.93092
2010-06-23 07:09:01 51°14.048 2°55.535 20.1526 0.050805 0.262786 -0.93092
2010-06-23 07:09:06 51°14.054 2°55.526 20.126 0.050597 0.261687 -0.93092
2010-06-23 07:09:12 51°14.061 2°55.514 20.0878 0.049141 0.253995 -0.965744
2010-06-23 07:09:16 51°14.067 2°55.506 20.0728 0.048933 0.252898 -0.93092
2010-06-23 07:09:21 51°14.073 2°55.496 20.0418 0.047581 0.24576 -0.896096
2010-06-23 07:09:27 51°14.082 2°55.484 20.0334 0.047581 0.24576 -0.896096
2010-06-23 07:09:31 51°14.088 2°55.476 20.0453 0.047165 0.24357 -0.896096
2010-06-23 07:09:36 51°14.095 2°55.467 20.0532 0.046853 0.241921 -0.93092
2010-06-23 07:09:41 51°14.103 2°55.458 20.1033 0.047893 0.2474 -0.965744
2010-06-23 07:09:47 51°14.113 2°55.448 20.1168 0.047373 0.244665 -0.93092
2010-06-23 07:09:52 51°14.121 2°55.439 20.1199 0.048725 0.251797 -0.93092
2010-06-23 07:09:56 51°14.128 2°55.432 20.1357 0.048725 0.251797 -0.93092
2010-06-23 07:10:01 51°14.136 2°55.423 20.1326 0.046541 0.240297 -0.93092
2010-06-23 07:10:07 51°14.147 2°55.413 20.1265 0.047685 0.246326 -0.896096
2010-06-23 07:10:12 51°14.155 2°55.404 20.1392 0.047581 0.245775 -0.896096
2010-06-23 07:10:17 51°14.163 2°55.395 20.142 0.049453 0.255649 -0.93092
2010-06-23 07:10:22 51°14.172 2°55.386 20.1446 0.047269 0.244132 -0.93092
2010-06-23 07:10:27 51°14.18 2°55.378 20.1433 0.047269 0.244132 -0.93092
2010-06-23 07:10:32 51°14.189 2°55.369 20.1427 0.046749 0.241395 -0.93092
2010-06-23 07:10:36 51°14.196 2°55.363 20.1455 0.045916 0.237016 -0.93092
2010-06-23 07:10:42 51°14.206 2°55.353 20.1591 0.048101 0.248514 -0.93092
2010-06-23 07:10:47 51°14.214 2°55.345 20.1814 0.048205 0.249063 -0.965744
2010-06-23 07:10:51 51°14.221 2°55.338 20.1551 0.046957 0.242489 -0.93092
2010-06-23 07:10:56 51°14.23 2°55.33 20.1562 0.046957 0.242489 -0.93092
2010-06-23 07:11:01 51°14.239 2°55.322 20.1741 0.0455 0.234829 -0.965744
2010-06-23 07:11:06 51°14.247 2°55.314 20.2055 0.049245 0.254555 -0.93092
2010-06-23 07:11:11 51°14.256 2°55.305 20.1821 0.046333 0.23921 -0.93092
2010-06-23 07:11:16 51°14.266 2°55.296 20.1673 0.049141 0.254014 -0.93092
2010-06-23 07:11:21 51°14.277 2°55.286 20.1533 0.047893 0.247426 -0.965744
2010-06-23 07:11:26 51°14.288 2°55.275 20.1452 0.047893 0.247426 -0.965744
2010-06-23 07:11:31 51°14.299 2°55.264 20.1167 0.047269 0.244135 -0.965744
2010-06-23 07:11:36 51°14.311 2°55.253 20.1324 0.046125 0.238109 -0.896096
2010-06-23 07:11:41 51°14.324 2°55.241 20.1325 0.042692 0.220092 -0.93092
2010-06-23 07:11:46 51°14.336 2°55.228 20.1209 0.045604 0.235369 -0.93092
2010-06-23 07:11:51 51°14.349 2°55.215 20.0952 0.043524 0.224453 -0.965744
2010-06-23 07:11:56 51°14.362 2°55.202 20.0952 0.043524 0.224453 -0.965744
2010-06-23 07:12:01 51°14.375 2°55.188 20.054 0.04238 0.218455 -0.93092
2010-06-23 07:12:06 51°14.388 2°55.175 20.031 0.044772 0.230992 -0.93092
2010-06-23 07:12:11 51°14.401 2°55.161 20.0454 0.042276 0.217908 -0.896096
2010-06-23 07:12:16 51°14.415 2°55.147 20.0697 0.042796 0.220633 -0.93092
2010-06-23 07:12:21 51°14.428 2°55.134 20.0657 0.044252 0.228274 -0.965744
2010-06-23 07:12:26 51°14.442 2°55.12 20.0829 0.044252 0.228274 -0.965744
2010-06-23 07:12:32 51°14.458 2°55.103 20.1032 0.050493 0.261145 -0.93092
2010-06-23 07:12:36 51°14.469 2°55.092 20.1248 0.043732 0.22556 -0.93092
2010-06-23 07:12:41 51°14.482 2°55.077 20.1068 0.047893 0.247444 -0.93092
2010-06-23 07:12:46 51°14.496 2°55.063 20.1172 0.045604 0.235393 -0.965744
2010-06-23 07:12:51 51°14.509 2°55.048 20.0563 0.041756 0.21521 -0.965744
2010-06-23 07:12:56 51°14.523 2°55.033 20.0661 0.041756 0.21521 -0.965744
2010-06-23 07:13:01 51°14.537 2°55.018 20.1221 0.047373 0.244679 -0.93092
2010-06-23 07:13:06 51°14.55 2°55.003 20.1028 0.04238 0.218468 -0.896096
2010-06-23 07:13:11 51°14.564 2°54.988 20.0695 0.05247 0.271622 -0.93092
2010-06-23 07:13:16 51°14.578 2°54.973 20.0384 0.040508 0.208688 -0.965744
2010-06-23 07:13:21 51°14.592 2°54.959 20.0799 0.050389 0.260623 -0.93092
2010-06-23 07:13:26 51°14.606 2°54.946 20.0951 0.050389 0.260623 -0.93092
2010-06-23 07:13:31 51°14.62 2°54.932 20.0788 0.048933 0.252939 -0.93092
2010-06-23 07:13:36 51°14.634 2°54.918 20.0845 0.051118 0.264487 -0.93092
2010-06-23 07:13:41 51°14.648 2°54.904 20.0774 0.046645 0.240883 -0.93092
2010-06-23 07:13:46 51°14.662 2°54.89 20.1187 0.050701 0.262276 -0.93092
2010-06-23 07:13:52 51°14.679 2°54.873 20.113 0.046645 0.240887 -0.93092
2010-06-23 07:13:56 51°14.69 2°54.862 20.1055 0.046645 0.240887 -0.93092
2010-06-23 07:14:01 51°14.704 2°54.847 20.0616 0.05195 0.268909 -0.896096
2010-06-23 07:14:07 51°14.721 2°54.83 20.0904 0.050493 0.261211 -0.896096
2010-06-23 07:14:11 51°14.732 2°54.818 20.0957 0.048725 0.251875 -0.93092
2010-06-23 07:14:16 51°14.745 2°54.803 20.1038 0.052574 0.272214 -0.965744
2010-06-23 07:14:21 51°14.759 2°54.789 20.1068 0.049245 0.254604 -0.965744
2010-06-23 07:14:26 51°14.773 2°54.774 20.1021 0.049245 0.254604 -0.965744
2010-06-23 07:14:32 51°14.79 2°54.756 20.0909 0.049661 0.256789 -0.965744
2010-06-23 07:14:36 51°14.801 2°54.744 20.0813 0.048101 0.248551 -0.896096
2010-06-23 07:14:41 51°14.816 2°54.728 20.0644 0.046437 0.239785 -0.93092
2010-06-23 07:14:46 51°14.831 2°54.713 20.1021 0.052158 0.269994 -0.965744
2010-06-23 07:14:52 51°14.849 2°54.695 20.1002 0.046437 0.239796 -0.93092
2010-06-23 07:14:56 51°14.861 2°54.683 20.1229 0.046437 0.239796 -0.93092
2010-06-23 07:15:01 51°14.876 2°54.667 20.1169 0.048517 0.250771 -0.93092
2010-06-23 07:15:06 51°14.891 2°54.651 20.126 0.050077 0.259005 -0.93092
2010-06-23 07:15:12 51°14.909 2°54.631 20.1216 0.052574 0.272218 -0.93092
2010-06-23 07:15:16 51°14.921 2°54.618 20.1022 0.048933 0.252965 -0.93092
2010-06-23 07:15:22 51°14.939 2°54.597 20.1202 0.052782 0.27332 -0.93092
2010-06-23 07:15:27 51°14.953 2°54.581 20.0951 0.052782 0.27332 -0.93092
2010-06-23 07:15:32 51°14.968 2°54.563 20.0992 0.05299 0.274426 -0.93092
2010-06-23 07:15:36 51°14.979 2°54.549 20.0894 0.049245 0.254615 -0.896096
2010-06-23 07:15:41 51°14.993 2°54.531 20.0958 0.050493 0.261207 -0.93092
2010-06-23 07:15:47 51°15.011 2°54.511 20.0958 0.050181 0.259551 -0.965744
2010-06-23 07:15:51 51°15.022 2°54.496 20.0983 0.051222 0.265049 -0.965744
2010-06-23 07:15:56 51°15.037 2°54.479 20.1093 0.051222 0.265049 -0.965744
2010-06-23 07:16:01 51°15.051 2°54.461 20.1131 0.047269 0.24419 -0.93092
2010-06-23 07:16:07 51°15.069 2°54.44 20.1137 0.050285 0.260104 -0.93092
2010-06-23 07:16:11 51°15.081 2°54.426 20.1245 0.049245 0.254608 -0.93092
2010-06-23 07:16:16 51°15.095 2°54.409 20.0954 0.049349 0.255153 -0.93092
2010-06-23 07:16:21 51°15.11 2°54.392 20.1203 0.053302 0.276072 -0.93092
2010-06-23 07:16:26 51°15.125 2°54.375 20.1119 0.053302 0.276072 -0.93092
2010-06-23 07:16:31 51°15.14 2°54.358 20.133 0.050805 0.262845 -0.93092
2010-06-23 07:16:36 51°15.155 2°54.34 20.1215 0.05351 0.277175 -0.896096
2010-06-23 07:16:41 51°15.169 2°54.323 20.11 0.048101 0.248581 -0.93092
2010-06-23 07:16:46 51°15.183 2°54.305 20.0811 0.052158 0.270019 -0.965744
2010-06-23 07:16:51 51°15.198 2°54.287 20.1309 0.047477 0.245289 -0.896096
2010-06-23 07:16:56 51°15.213 2°54.269 20.112 0.047477 0.245289 -0.896096
2010-06-23 07:17:01 51°15.227 2°54.252 20.1219 0.054238 0.281061 -0.93092
2010-06-23 07:17:06 51°15.242 2°54.234 20.1192 0.047373 0.244755 -0.965744
2010-06-23 07:17:11 51°15.257 2°54.216 20.0985 0.051846 0.268387 -0.965744
2010-06-23 07:17:16 51°15.271 2°54.199 20.0893 0.048829 0.252435 -0.93092
2010-06-23 07:17:21 51°15.286 2°54.181 20.117 0.053198 0.275537 -0.93092
2010-06-23 07:17:26 51°15.301 2°54.164 20.1348 0.053198 0.275537 -0.93092
2010-06-23 07:17:31 51°15.316 2°54.146 20.1308 0.051326 0.265623 -0.93092
2010-06-23 07:17:36 51°15.331 2°54.129 20.1434 0.053406 0.27664 -0.93092
2010-06-23 07:17:41 51°15.345 2°54.111 20.1405 0.049037 0.253525 -0.93092
2010-06-23 07:17:46 51°15.36 2°54.094 20.1356 0.05143 0.266165 -0.93092
2010-06-23 07:17:51 51°15.375 2°54.076 20.1277 0.049973 0.258479 -0.93092
2010-06-23 07:17:56 51°15.389 2°54.058 20.1262 0.049973 0.258479 -0.93092
2010-06-23 07:18:01 51°15.404 2°54.039 20.126 0.049661 0.256831 -0.93092
2010-06-23 07:18:06 51°15.418 2°54.021 20.1251 0.052366 0.27114 -0.965744
2010-06-23 07:18:11 51°15.432 2°54.003 20.1369 0.046437 0.239835 -0.965744
2010-06-23 07:18:16 51°15.447 2°53.984 20.1008 0.050077 0.259036 -0.93092
2010-06-23 07:18:21 51°15.461 2°53.965 20.1073 0.051118 0.264534 -0.93092
2010-06-23 07:18:26 51°15.475 2°53.946 20.1128 0.051118 0.264534 -0.93092
2010-06-23 07:18:31 51°15.489 2°53.927 20.1369 0.05299 0.274447 -0.93092
2010-06-23 07:18:36 51°15.503 2°53.909 20.1299 0.049349 0.255176 -0.93092
2010-06-23 07:18:41 51°15.517 2°53.89 20.13 0.051013 0.263965 -0.93092
2010-06-23 07:18:46 51°15.531 2°53.872 20.1337 0.051222 0.265065 -0.93092
2010-06-23 07:18:51 51°15.546 2°53.853 20.1464 0.049661 0.256819 -0.93092
2010-06-23 07:18:56 51°15.56 2°53.835 20.131 0.049661 0.256819 -0.93092
2010-06-23 07:19:01 51°15.574 2°53.816 20.1412 0.048413 0.250237 -0.93092
2010-06-23 07:19:06 51°15.588 2°53.797 20.1227 0.047581 0.245858 -0.93092
2010-06-23 07:19:12 51°15.605 2°53.775 20.131 0.050389 0.260689 -0.93092
2010-06-23 07:19:16 51°15.616 2°53.76 20.144 0.05195 0.268941 -0.93092
2010-06-23 07:19:21 51°15.63 2°53.742 20.145 0.049245 0.254642 -0.93092
2010-06-23 07:19:26 51°15.644 2°53.723 20.1287 0.049245 0.254642 -0.93092
2010-06-23 07:19:31 51°15.658 2°53.705 20.1306 0.052678 0.272797 -0.93092
2010-06-23 07:19:36 51°15.672 2°53.687 20.1481 0.048517 0.250789 -0.93092
2010-06-23 07:19:41 51°15.687 2°53.669 20.1438 0.054342 0.281626 -0.965744
2010-06-23 07:19:46 51°15.701 2°53.65 20.1366 0.047165 0.243671 -0.93092
2010-06-23 07:19:51 51°15.715 2°53.632 20.1396 0.049141 0.254097 -0.93092
2010-06-23 07:19:56 51°15.729 2°53.614 20.1449 0.049141 0.254097 -0.93092
2010-06-23 07:20:01 51°15.743 2°53.595 20.1293 0.050805 0.262896 -0.965744
2010-06-23 07:20:06 51°15.758 2°53.577 20.1205 0.05143 0.266201 -0.93092
2010-06-23 07:20:11 51°15.772 2°53.558 20.1377 0.046645 0.240944 -0.896096
2010-06-23 07:20:16 51°15.786 2°53.54 20.144 0.051013 0.263992 -0.965744
2010-06-23 07:20:21 51°15.8 2°53.522 20.1526 0.049557 0.256289 -0.93092
2010-06-23 07:20:26 51°15.814 2°53.504 20.1347 0.049557 0.256289 -0.93092
2010-06-23 07:20:31 51°15.828 2°53.485 20.1403 0.05403 0.279974 -0.965744
2010-06-23 07:20:36 51°15.843 2°53.466 20.1392 0.047269 0.244218 -0.93092
2010-06-23 07:20:40 51°15.854 2°53.452 20.1475 0.049869 0.257941 -0.93092
2010-06-23 07:20:46 51°15.871 2°53.43 20.1366 0.051013 0.263988 -0.93092
2010-06-23 07:20:51 51°15.885 2°53.412 20.1411 0.051118 0.264554 -0.93092
2010-06-23 07:20:56 51°15.899 2°53.394 20.1435 0.051118 0.264554 -0.93092
2010-06-23 07:21:01 51°15.913 2°53.376 20.1406 0.047165 0.243685 -0.93092
2010-06-23 07:21:06 51°15.927 2°53.358 20.1376 0.05195 0.268973 -0.93092
2010-06-23 07:21:11 51°15.942 2°53.34 20.1266 0.051638 0.267318 -0.93092
2010-06-23 07:21:16 51°15.956 2°53.322 20.1615 0.05143 0.266221 -0.93092
2010-06-23 07:21:21 51°15.97 2°53.304 20.1323 0.046333 0.239312 -0.896096
2010-06-23 07:21:26 51°15.984 2°53.286 20.1528 0.046333 0.239312 -0.896096
2010-06-23 07:21:31 51°15.999 2°53.268 20.1042 0.050389 0.260716 -0.93092
2010-06-23 07:21:36 51°16.013 2°53.25 20.1303 0.052678 0.272834 -0.93092
2010-06-23 07:21:41 51°16.027 2°53.233 20.1299 0.04446 0.22946 -0.93092
2010-06-23 07:21:46 51°16.042 2°53.217 20.1248 0.05195 0.268941 -0.93092
2010-06-23 07:21:51 51°16.057 2°53.2 20.1199 0.053926 0.279452 -0.93092
2010-06-23 07:21:56 51°16.072 2°53.184 20.1131 0.053926 0.279452 -0.93092
2010-06-23 07:22:01 51°16.087 2°53.168 20.1451 0.046541 0.240414 -0.93092
2010-06-23 07:22:06 51°16.103 2°53.154 20.1279 0.051638 0.267325 -0.896096
2010-06-23 07:22:11 51°16.118 2°53.138 20.1272 0.052262 0.270638 -0.93092
2010-06-23 07:22:16 51°16.134 2°53.124 20.128 0.051742 0.2679 -0.965744
2010-06-23 07:22:21 51°16.15 2°53.109 20.1374 0.052782 0.273418 -0.93092
2010-06-23 07:22:26 51°16.166 2°53.096 20.1084 0.052782 0.273418 -0.93092
2010-06-23 07:22:31 51°16.182 2°53.082 20.1294 0.048621 0.251401 -0.965744
2010-06-23 07:22:36 51°16.199 2°53.07 20.1296 0.06589 0.343342 -0.93092
2010-06-23 07:22:41 51°16.215 2°53.057 20.1462 0.054446 0.282241 -0.896096
2010-06-23 07:22:46 51°16.232 2°53.045 20.1235 0.056007 0.290522 -0.965744
2010-06-23 07:22:51 51°16.248 2°53.033 20.1565 0.060896 0.316581 -0.965744
2010-06-23 07:22:56 51°16.265 2°53.022 20.137 0.060896 0.316581 -0.965744
2010-06-23 07:23:01 51°16.282 2°53.011 20.1524 0.054758 0.283881 -0.93092
2010-06-23 07:23:06 51°16.299 2°53 20.1351 0.056735 0.294395 -0.93092
2010-06-23 07:23:11 51°16.316 2°52.989 20.153 0.054342 0.281685 -0.93092
2010-06-23 07:23:16 51°16.333 2°52.978 20.15 0.05892 0.306052 -0.965744
2010-06-23 07:23:21 51°16.35 2°52.968 20.1399 0.057879 0.300499 -0.93092
2010-06-23 07:23:26 51°16.367 2°52.957 20.1514 0.057879 0.300499 -0.93092
2010-06-23 07:23:31 51°16.384 2°52.946 20.1588 0.054238 0.281137 -0.93092
2010-06-23 07:23:36 51°16.401 2°52.936 20.1661 0.055383 0.287222 -0.93092
2010-06-23 07:23:40 51°16.414 2°52.927 20.1498 0.058191 0.302207 -0.93092
2010-06-23 07:23:46 51°16.434 2°52.914 20.1537 0.056735 0.294456 -0.93092
2010-06-23 07:23:51 51°16.451 2°52.903 20.1305 0.059856 0.311102 -0.93092
2010-06-23 07:23:56 51°16.468 2°52.891 20.1454 0.059856 0.311102 -0.93092
2010-06-23 07:24:01 51°16.485 2°52.88 20.1671 0.061 0.317175 -0.93092
2010-06-23 07:24:06 51°16.502 2°52.869 20.1782 0.056735 0.294417 -0.93092
2010-06-23 07:24:12 51°16.522 2°52.855 20.1274 0.06485 0.337768 -0.93092
2010-06-23 07:24:16 51°16.535 2°52.845 20.1765 0.055695 0.28888 -0.93092
2010-06-23 07:24:21 51°16.551 2°52.834 20.1385 0.056631 0.29389 -0.93092
2010-06-23 07:24:26 51°16.568 2°52.821 20.1595 0.056631 0.29389 -0.93092
2010-06-23 07:24:31 51°16.584 2°52.809 20.1638 0.057879 0.30054 -0.93092
2010-06-23 07:24:36 51°16.601 2°52.796 20.1487 0.061312 0.318861 -0.93092
2010-06-23 07:24:41 51°16.617 2°52.784 20.1608 0.059024 0.306616 -0.965744
2010-06-23 07:24:46 51°16.634 2°52.772 20.1638 0.062665 0.326064 -0.93092
2010-06-23 07:24:51 51°16.65 2°52.759 20.1701 0.05351 0.277278 -0.93092
2010-06-23 07:24:56 51°16.666 2°52.746 20.1527 0.05351 0.277278 -0.93092
2010-06-23 07:25:01 51°16.683 2°52.734 20.1648 0.062353 0.324404 -0.93092
2010-06-23 07:25:06 51°16.699 2°52.721 20.1573 0.055903 0.289999 -0.965744
2010-06-23 07:25:11 51°16.715 2°52.709 20.1627 0.059232 0.307744 -0.93092
2010-06-23 07:25:16 51°16.732 2°52.697 20.1638 0.064121 0.333861 -0.93092
2010-06-23 07:25:21 51°16.748 2°52.684 20.1552 0.058816 0.305516 -0.93092
2010-06-23 07:25:26 51°16.764 2°52.672 20.1679 0.058816 0.305516 -0.93092
2010-06-23 07:25:31 51°16.781 2°52.66 20.17 0.05247 0.271776 -0.93092
2010-06-23 07:25:36 51°16.797 2°52.648 20.1638 0.05892 0.306071 -0.93092
2010-06-23 07:25:41 51°16.813 2°52.635 20.158 0.062145 0.323306 -0.965744
2010-06-23 07:25:46 51°16.829 2°52.623 20.1719 0.060064 0.312208 -0.93092
2010-06-23 07:25:51 51°16.845 2°52.61 20.1671 0.052886 0.274002 -0.93092
2010-06-23 07:25:56 51°16.862 2°52.598 20.1742 0.052886 0.274002 -0.93092
2010-06-23 07:26:01 51°16.878 2°52.585 20.1664 0.05996 0.311634 -0.896096
2010-06-23 07:26:06 51°16.894 2°52.573 20.1741 0.059336 0.308276 -0.93092
2010-06-23 07:26:12 51°16.914 2°52.557 20.173 0.056943 0.295533 -0.93092
2010-06-23 07:26:16 51°16.926 2°52.547 20.157 0.058607 0.304402 -0.93092
2010-06-23 07:26:21 51°16.943 2°52.535 20.1464 0.061729 0.321105 -0.896096
2010-06-23 07:26:26 51°16.959 2°52.522 20.1795 0.061729 0.321105 -0.896096
2010-06-23 07:26:31 51°16.975 2°52.51 20.1589 0.055279 0.286729 -0.93092
2010-06-23 07:26:36 51°16.991 2°52.497 20.1746 0.060896 0.316648 -0.93092
2010-06-23 07:26:41 51°17.008 2°52.484 20.1709 0.06152 0.319959 -0.93092
2010-06-23 07:26:46 51°17.024 2°52.472 20.1719 0.058191 0.302189 -0.896096
2010-06-23 07:26:51 51°17.04 2°52.459 20.1682 0.059232 0.307739 -0.896096
2010-06-23 07:26:56 51°17.056 2°52.447 20.1684 0.059232 0.307739 -0.896096
2010-06-23 07:27:01 51°17.073 2°52.434 20.164 0.057255 0.297207 -0.896096
2010-06-23 07:27:06 51°17.089 2°52.422 20.1653 0.05944 0.308858 -0.93092
2010-06-23 07:27:11 51°17.105 2°52.409 20.1642 0.05247 0.271805 -0.896096
2010-06-23 07:27:16 51°17.121 2°52.396 20.1864 0.061624 0.320558 -0.93092
2010-06-23 07:27:21 51°17.138 2°52.384 20.1694 0.05996 0.311653 -0.896096
2010-06-23 07:27:26 51°17.154 2°52.371 20.1688 0.05996 0.311653 -0.896096
2010-06-23 07:27:31 51°17.17 2°52.358 20.1833 0.058712 0.30497 -0.93092
2010-06-23 07:27:36 51°17.187 2°52.345 20.1708 0.05455 0.282827 -0.93092
2010-06-23 07:27:41 51°17.203 2°52.332 20.1848 0.055383 0.287261 -0.93092
2010-06-23 07:27:47 51°17.222 2°52.317 20.1563 0.056735 0.294465 -0.93092
2010-06-23 07:27:51 51°17.235 2°52.307 20.1603 0.055175 0.286181 -0.93092
2010-06-23 07:27:56 51°17.252 2°52.295 20.1547 0.055175 0.286181 -0.93092
2010-06-23 07:28:01 51°17.268 2°52.282 20.1752 0.06152 0.320002 -0.93092
2010-06-23 07:28:06 51°17.285 2°52.27 20.1933 0.054862 0.28448 -0.965744
2010-06-23 07:28:11 51°17.301 2°52.257 20.1794 0.061729 0.321076 -0.896096
2010-06-23 07:28:16 51°17.317 2°52.244 20.1729 0.060272 0.313286 -0.896096
2010-06-23 07:28:21 51°17.334 2°52.23 20.1837 0.060896 0.316633 -0.93092
2010-06-23 07:28:26 51°17.35 2°52.218 20.1744 0.060896 0.316633 -0.93092
2010-06-23 07:28:32 51°17.369 2°52.202 20.1759 0.061208 0.318334 -0.93092
2010-06-23 07:28:36 51°17.382 2°52.191 20.1826 0.054238 0.281196 -0.93092
2010-06-23 07:28:41 51°17.399 2°52.179 20.1719 0.060584 0.31499 -0.93092
2010-06-23 07:28:46 51°17.415 2°52.166 20.1935 0.061416 0.319446 -0.93092
2010-06-23 07:28:51 51°17.431 2°52.154 20.1914 0.05892 0.306112 -0.965744
2010-06-23 07:28:56 51°17.448 2°52.141 20.2042 0.05892 0.306112 -0.965744
2010-06-23 07:29:01 51°17.464 2°52.128 20.1991 0.057567 0.298905 -0.896096
2010-06-23 07:29:06 51°17.48 2°52.116 20.1907 0.05996 0.311676 -0.93092
2010-06-23 07:29:11 51°17.496 2°52.103 20.188 0.054342 0.281752 -0.93092
2010-06-23 07:29:16 51°17.513 2°52.09 20.1849 0.055487 0.287848 -0.93092
2010-06-23 07:29:21 51°17.529 2°52.078 20.1949 0.062353 0.324487 -0.93092
2010-06-23 07:29:26 51°17.545 2°52.065 20.2036 0.062353 0.324487 -0.93092
2010-06-23 07:29:31 51°17.561 2°52.052 20.1974 0.058295 0.302852 -0.93092
2010-06-23 07:29:36 51°17.577 2°52.04 20.2002 0.061416 0.319499 -0.93092
2010-06-23 07:29:41 51°17.594 2°52.028 20.2002 0.058712 0.30503 -0.965744
2010-06-23 07:29:46 51°17.61 2°52.015 20.203 0.053926 0.279548 -0.93092
2010-06-23 07:29:51 51°17.626 2°52.002 20.2031 0.056631 0.293916 -0.965744
2010-06-23 07:29:56 51°17.642 2°51.99 20.1917 0.056631 0.293916 -0.965744
2010-06-23 07:30:01 51°17.658 2°51.977 20.2017 0.053198 0.275689 -0.93092
2010-06-23 07:30:06 51°17.675 2°51.965 20.1859 0.060376 0.313917 -0.965744
2010-06-23 07:30:11 51°17.691 2°51.952 20.2086 0.049453 0.255896 -0.896096
2010-06-23 07:30:16 51°17.707 2°51.94 20.1906 0.060064 0.312288 -0.965744
2010-06-23 07:30:21 51°17.723 2°51.927 20.198 0.059856 0.311158 -0.93092
2010-06-23 07:30:26 51°17.739 2°51.915 20.2198 0.059856 0.311158 -0.93092
2010-06-23 07:30:31 51°17.755 2°51.903 20.2126 0.051638 0.267425 -0.896096
2010-06-23 07:30:36 51°17.771 2°51.89 20.2087 0.065162 0.339549 -0.896096
2010-06-23 07:30:41 51°17.788 2°51.878 20.2108 0.057047 0.296157 -0.896096
2010-06-23 07:30:46 51°17.804 2°51.866 20.2105 0.057567 0.298927 -0.965744
2010-06-23 07:30:51 51°17.82 2°51.853 20.1941 0.059752 0.310575 -0.93092
2010-06-23 07:30:56 51°17.836 2°51.84 20.2083 0.059752 0.310575 -0.93092
2010-06-23 07:31:00 51°17.849 2°51.831 20.217 0.059128 0.307231 -0.896096
2010-06-23 07:31:06 51°17.869 2°51.816 20.1958 0.054134 0.280669 -0.93092
2010-06-23 07:31:11 51°17.885 2°51.803 20.2202 0.056943 0.295612 -0.965744
2010-06-23 07:31:16 51°17.901 2°51.791 20.2177 0.051638 0.267445 -0.896096
2010-06-23 07:31:21 51°17.917 2°51.779 20.2094 0.058607 0.304525 -0.93092
2010-06-23 07:31:26 51°17.934 2°51.766 20.2102 0.058607 0.304525 -0.93092
2010-06-23 07:31:31 51°17.95 2°51.755 20.2063 0.054342 0.281807 -0.93092
2010-06-23 07:31:36 51°17.967 2°51.742 20.2312 0.053822 0.279037 -0.93092
2010-06-23 07:31:41 51°17.983 2°51.73 20.2229 0.058607 0.304493 -0.965744
2010-06-23 07:31:46 51°17.999 2°51.717 20.1916 0.056735 0.294514 -0.965744
2010-06-23 07:31:51 51°18.015 2°51.705 20.1829 0.057775 0.300062 -0.896096
2010-06-23 07:31:56 51°18.032 2°51.692 20.1983 0.057775 0.300062 -0.896096
2010-06-23 07:32:01 51°18.048 2°51.68 20.226 0.059128 0.307291 -0.93092
2010-06-23 07:32:06 51°18.064 2°51.667 20.2196 0.057983 0.301189 -0.93092
2010-06-23 07:32:11 51°18.08 2°51.654 20.2185 0.058607 0.304503 -0.965744
2010-06-23 07:32:16 51°18.096 2°51.642 20.2079 0.053926 0.279594 -0.93092
2010-06-23 07:32:21 51°18.112 2°51.629 20.2168 0.062249 0.32396 -0.93092
2010-06-23 07:32:26 51°18.128 2°51.616 20.2177 0.062249 0.32396 -0.93092
2010-06-23 07:32:31 51°18.144 2°51.603 20.2326 0.054758 0.284008 -0.93092
2010-06-23 07:32:36 51°18.161 2°51.59 20.2325 0.057359 0.297846 -0.93092
2010-06-23 07:32:41 51°18.177 2°51.578 20.2004 0.061 0.317275 -0.965744
2010-06-23 07:32:46 51°18.193 2°51.565 20.242 0.058191 0.302302 -0.93092
2010-06-23 07:32:51 51°18.209 2°51.552 20.2437 0.057775 0.300116 -0.93092
2010-06-23 07:32:56 51°18.225 2°51.539 20.2138 0.057775 0.300116 -0.93092
2010-06-23 07:33:01 51°18.241 2°51.525 20.235 0.05299 0.274688 -0.93092
2010-06-23 07:33:06 51°18.257 2°51.511 20.2365 0.057983 0.30123 -0.965744
2010-06-23 07:33:12 51°18.275 2°51.493 20.2229 0.060688 0.315641 -0.896096
2010-06-23 07:33:16 51°18.288 2°51.482 20.2044 0.051742 0.268004 -0.93092
2010-06-23 07:33:21 51°18.303 2°51.466 20.2397 0.065162 0.339559 -0.93092
2010-06-23 07:33:26 51°18.318 2°51.45 20.2303 0.065162 0.339559 -0.93092
2010-06-23 07:33:31 51°18.333 2°51.434 20.2216 0.058191 0.302275 -0.93092
2010-06-23 07:33:36 51°18.348 2°51.419 20.2381 0.056111 0.291193 -0.896096
2010-06-23 07:33:41 51°18.363 2°51.402 20.2182 0.061208 0.318377 -0.93092
2010-06-23 07:33:46 51°18.378 2°51.387 20.2182 0.049245 0.254789 -0.93092
2010-06-23 07:33:51 51°18.393 2°51.371 20.2307 0.061729 0.321177 -0.93092
2010-06-23 07:33:56 51°18.408 2°51.355 20.237 0.061729 0.321177 -0.93092
2010-06-23 07:34:01 51°18.423 2°51.339 20.2413 0.051742 0.268004 -0.93092
2010-06-23 07:34:06 51°18.438 2°51.323 20.2416 0.058295 0.302852 -0.93092
2010-06-23 07:34:11 51°18.453 2°51.307 20.2366 0.060792 0.316177 -0.93092
2010-06-23 07:34:16 51°18.468 2°51.291 20.2374 0.051846 0.268559 -0.93092
2010-06-23 07:34:21 51°18.483 2°51.275 20.2412 0.047685 0.24656 -0.965744
2010-06-23 07:34:26 51°18.498 2°51.258 20.2504 0.047685 0.24656 -0.965744
2010-06-23 07:34:31 51°18.513 2°51.243 20.2461 0.057151 0.296742 -0.965744
2010-06-23 07:34:36 51°18.528 2°51.227 20.2471 0.056007 0.290665 -0.965744
2010-06-23 07:34:41 51°18.544 2°51.211 20.2308 0.050077 0.259209 -0.93092
2010-06-23 07:34:46 51°18.559 2°51.195 20.2346 0.056215 0.291777 -0.93092
2010-06-23 07:34:51 51°18.574 2°51.179 20.2426 0.052886 0.274083 -0.93092
2010-06-23 07:34:56 51°18.589 2°51.163 20.2424 0.052886 0.274083 -0.93092
2010-06-23 07:35:01 51°18.604 2°51.147 20.2335 0.055591 0.288453 -0.93092
2010-06-23 07:35:06 51°18.619 2°51.131 20.2461 0.051846 0.268579 -0.93092
2010-06-23 07:35:12 51°18.638 2°51.112 20.2303 0.053198 0.275759 -0.93092
2010-06-23 07:35:16 51°18.65 2°51.1 20.2343 0.05403 0.280175 -0.965744
2010-06-23 07:35:21 51°18.665 2°51.084 20.2483 0.057359 0.297877 -0.93092
2010-06-23 07:35:26 51°18.68 2°51.068 20.2576 0.057359 0.297877 -0.93092
2010-06-23 07:35:31 51°18.695 2°51.052 20.2497 0.051222 0.265274 -0.93092
2010-06-23 07:35:36 51°18.71 2°51.036 20.2495 0.05892 0.306204 -0.93092
2010-06-23 07:35:41 51°18.725 2°51.02 20.2621 0.057671 0.299548 -0.93092
2010-06-23 07:35:46 51°18.741 2°51.004 20.2476 0.049661 0.257029 -0.93092
2010-06-23 07:35:51 51°18.756 2°50.988 20.253 0.057671 0.299566 -0.965744
2010-06-23 07:35:56 51°18.771 2°50.972 20.2456 0.057671 0.299566 -0.965744
2010-06-23 07:36:01 51°18.786 2°50.956 20.2381 0.054758 0.284055 -0.93092
2010-06-23 07:36:06 51°18.801 2°50.94 20.2528 0.054654 0.283494 -0.93092
2010-06-23 07:36:11 51°18.816 2°50.924 20.2492 0.055903 0.290138 -0.93092
2010-06-23 07:36:16 51°18.832 2°50.909 20.239 0.053718 0.278539 -0.93092
2010-06-23 07:36:21 51°18.847 2°50.893 20.2446 0.054862 0.284625 -0.93092
2010-06-23 07:36:26 51°18.862 2°50.877 20.2624 0.054862 0.284625 -0.93092
2010-06-23 07:36:31 51°18.878 2°50.862 20.2639 0.050805 0.263095 -0.93092
2010-06-23 07:36:36 51°18.893 2°50.846 20.2534 0.059752 0.310687 -0.93092
2010-06-23 07:36:41 51°18.908 2°50.831 20.262 0.051222 0.265313 -0.93092
2010-06-23 07:36:46 51°18.924 2°50.815 20.2574 0.056631 0.294044 -0.93092
2010-06-23 07:36:51 51°18.939 2°50.799 20.2326 0.057047 0.296259 -0.896096
2010-06-23 07:36:56 51°18.954 2°50.783 20.2576 0.057047 0.296259 -0.896096
2010-06-23 07:37:01 51°18.969 2°50.767 20.2625 0.054654 0.283519 -0.965744
2010-06-23 07:37:06 51°18.984 2°50.751 20.2613 0.054654 0.283549 -0.93092
2010-06-23 07:37:12 51°19.003 2°50.732 20.2631 0.05455 0.282996 -0.93092
2010-06-23 07:37:16 51°19.015 2°50.719 20.2404 0.052158 0.270284 -0.93092
2010-06-23 07:37:21 51°19.03 2°50.703 20.2582 0.059336 0.308466 -0.896096
2010-06-23 07:37:26 51°19.046 2°50.687 20.2619 0.059336 0.308466 -0.896096
2010-06-23 07:37:31 51°19.061 2°50.672 20.2533 0.052158 0.270272 -0.93092
2010-06-23 07:37:36 51°19.077 2°50.656 20.2733 0.05299 0.274688 -0.965744
2010-06-23 07:37:41 51°19.092 2°50.641 20.2627 0.058712 0.30514 -0.93092
2010-06-23 07:37:46 51°19.107 2°50.626 20.26 0.049973 0.258721 -0.896096
2010-06-23 07:37:51 51°19.123 2°50.611 20.2542 0.056215 0.291847 -0.965744
2010-06-23 07:37:56 51°19.139 2°50.596 20.2727 0.056215 0.291847 -0.965744
2010-06-23 07:38:01 51°19.154 2°50.58 20.2638 0.053094 0.275256 -0.93092
2010-06-23 07:38:06 51°19.169 2°50.565 20.2779 0.057671 0.299611 -0.965744
2010-06-23 07:38:11 51°19.185 2°50.549 20.2697 0.055383 0.287415 -0.896096
2010-06-23 07:38:16 51°19.2 2°50.534 20.2778 0.051846 0.268631 -0.93092
2010-06-23 07:38:21 51°19.215 2°50.519 20.2795 0.05299 0.274705 -0.965744
2010-06-23 07:38:26 51°19.231 2°50.504 20.2834 0.05299 0.274705 -0.965744
2010-06-23 07:38:31 51°19.246 2°50.488 20.274 0.05403 0.280229 -0.93092
2010-06-23 07:38:36 51°19.262 2°50.473 20.276 0.055175 0.286326 -0.93092
2010-06-23 07:38:40 51°19.274 2°50.461 20.2849 0.055175 0.286318 -0.93092
2010-06-23 07:38:46 51°19.293 2°50.443 20.2827 0.051013 0.26424 -0.896096
2010-06-23 07:38:51 51°19.308 2°50.428 20.2758 0.051118 0.264802 -0.93092
2010-06-23 07:38:56 51°19.323 2°50.412 20.2839 0.051118 0.264802 -0.93092
2010-06-23 07:39:01 51°19.339 2°50.397 20.2729 0.050181 0.259844 -0.965744
2010-06-23 07:39:06 51°19.354 2°50.382 20.2735 0.053926 0.279698 -0.93092
2010-06-23 07:39:11 51°19.369 2°50.366 20.2668 0.051846 0.268663 -0.896096
2010-06-23 07:39:16 51°19.385 2°50.351 20.2867 0.05247 0.271975 -0.93092
2010-06-23 07:39:21 51°19.4 2°50.336 20.2963 0.062353 0.324653 -0.93092
2010-06-23 07:39:26 51°19.415 2°50.32 20.2827 0.062353 0.324653 -0.93092
2010-06-23 07:39:31 51°19.43 2°50.303 20.2981 0.054134 0.280828 -0.896096
2010-06-23 07:39:36 51°19.445 2°50.287 20.2764 0.05351 0.277514 -0.896096
2010-06-23 07:39:41 51°19.459 2°50.27 20.3004 0.051222 0.265384 -0.896096
2010-06-23 07:39:46 51°19.474 2°50.253 20.2818 0.054134 0.280828 -0.93092
2010-06-23 07:39:52 51°19.491 2°50.232 20.3001 0.057671 0.299661 -0.93092
2010-06-23 07:39:56 51°19.502 2°50.218 20.2661 0.057671 0.299661 -0.93092
2010-06-23 07:40:00 51°19.514 2°50.203 20.296 0.054758 0.284132 -0.93092
2010-06-23 07:40:06 51°19.531 2°50.183 20.2813 0.053198 0.275849 -0.93092
2010-06-23 07:40:11 51°19.545 2°50.165 20.2877 0.056839 0.295213 -0.93092
2010-06-23 07:40:16 51°19.56 2°50.147 20.2592 0.054966 0.285259 -0.965744
2010-06-23 07:40:21 51°19.574 2°50.13 20.2703 0.055383 0.287471 -0.93092
2010-06-23 07:40:26 51°19.588 2°50.112 20.2764 0.055383 0.287471 -0.93092
2010-06-23 07:40:31 51°19.602 2°50.094 20.3052 0.049765 0.257663 -0.93092
2010-06-23 07:40:36 51°19.617 2°50.077 20.2781 0.056319 0.292461 -0.965744
2010-06-23 07:40:41 51°19.631 2°50.059 20.2909 0.052054 0.269785 -0.93092
2010-06-23 07:40:46 51°19.645 2°50.041 20.2848 0.056839 0.295213 -0.93092
2010-06-23 07:40:51 51°19.66 2°50.024 20.288 0.055279 0.286884 -0.93092
2010-06-23 07:40:56 51°19.674 2°50.006 20.2989 0.055279 0.286884 -0.93092
2010-06-23 07:41:01 51°19.688 2°49.988 20.2775 0.050493 0.261491 -0.965744
2010-06-23 07:41:06 51°19.703 2°49.97 20.2957 0.052886 0.274177 -0.965744
2010-06-23 07:41:11 51°19.717 2°49.952 20.306 0.054134 0.280845 -0.93092
2010-06-23 07:41:16 51°19.731 2°49.934 20.2923 0.054238 0.28141 -0.965744
2010-06-23 07:41:21 51°19.746 2°49.916 20.3008 0.051846 0.268703 -0.93092
2010-06-23 07:41:26 51°19.76 2°49.899 20.286 0.051846 0.268703 -0.93092
2010-06-23 07:41:31 51°19.774 2°49.881 20.2677 0.052782 0.273658 -0.965744
2010-06-23 07:41:36 51°19.789 2°49.863 20.2926 0.051013 0.264275 -0.965744
2010-06-23 07:41:41 51°19.803 2°49.845 20.2939 0.055175 0.286365 -0.93092
2010-06-23 07:41:46 51°19.818 2°49.827 20.3153 0.059336 0.308563 -0.93092
2010-06-23 07:41:51 51°19.832 2°49.81 20.306 0.048621 0.25164 -0.93092
2010-06-23 07:41:56 51°19.847 2°49.792 20.3036 0.048621 0.25164 -0.93092
2010-06-23 07:42:01 51°19.861 2°49.774 20.2982 0.049141 0.254395 -0.965744
2010-06-23 07:42:06 51°19.875 2°49.757 20.2948 0.055591 0.288591 -0.93092
2010-06-23 07:42:11 51°19.89 2°49.739 20.3063 0.056111 0.291337 -0.896096
2010-06-23 07:42:16 51°19.905 2°49.722 20.3061 0.056527 0.293587 -0.896096
2010-06-23 07:42:21 51°19.919 2°49.704 20.3022 0.049973 0.258786 -0.965744
2010-06-23 07:42:26 51°19.934 2°49.686 20.3101 0.049973 0.258786 -0.965744
2010-06-23 07:42:31 51°19.948 2°49.668 20.3083 0.054238 0.281402 -0.896096
2010-06-23 07:42:36 51°19.962 2°49.65 20.3073 0.05195 0.269262 -0.93092
2010-06-23 07:42:41 51°19.977 2°49.633 20.3061 0.05507 0.285842 -0.93092
2010-06-23 07:42:46 51°19.992 2°49.615 20.3115 0.048413 0.250552 -0.965744
2010-06-23 07:42:51 51°20.006 2°49.597 20.3297 0.050181 0.259918 -0.896096
2010-06-23 07:42:56 51°20.021 2°49.579 20.3242 0.050181 0.259918 -0.896096
2010-06-23 07:43:01 51°20.035 2°49.562 20.3209 0.047477 0.245627 -0.93092
2010-06-23 07:43:06 51°20.05 2°49.544 20.3225 0.054966 0.285301 -0.965744
2010-06-23 07:43:11 51°20.064 2°49.526 20.3044 0.050077 0.25936 -0.93092
2010-06-23 07:43:16 51°20.079 2°49.508 20.3167 0.051638 0.267624 -0.965744
2010-06-23 07:43:21 51°20.094 2°49.49 20.3109 0.048517 0.251094 -0.896096
2010-06-23 07:43:26 51°20.108 2°49.473 20.3038 0.048517 0.251094 -0.896096
2010-06-23 07:43:31 51°20.123 2°49.455 20.3146 0.059544 0.309678 -0.93092
2010-06-23 07:43:36 51°20.138 2°49.437 20.3286 0.050909 0.263752 -0.93092
2010-06-23 07:43:41 51°20.152 2°49.419 20.3291 0.053094 0.275351 -0.93092
2010-06-23 07:43:46 51°20.167 2°49.401 20.3192 0.049037 0.25386 -0.93092
2010-06-23 07:43:51 51°20.182 2°49.383 20.2886 0.055903 0.290299 -0.93092
2010-06-23 07:43:56 51°20.196 2°49.365 20.3104 0.055903 0.290299 -0.93092
2010-06-23 07:44:01 51°20.211 2°49.347 20.31 0.049765 0.257747 -0.93092
2010-06-23 07:44:06 51°20.226 2°49.329 20.3157 0.055383 0.287562 -0.93092
2010-06-23 07:44:11 51°20.24 2°49.311 20.3217 0.050701 0.262701 -0.93092
2010-06-23 07:44:16 51°20.255 2°49.293 20.3239 0.055695 0.289213 -0.93092
2010-06-23 07:44:21 51°20.27 2°49.275 20.3242 0.05195 0.269314 -0.965744
2010-06-23 07:44:26 51°20.285 2°49.257 20.3279 0.05195 0.269314 -0.965744
2010-06-23 07:44:31 51°20.299 2°49.239 20.3281 0.051846 0.268759 -0.93092
2010-06-23 07:44:36 51°20.314 2°49.221 20.3293 0.054862 0.284753 -0.965744
2010-06-23 07:44:40 51°20.326 2°49.206 20.3155 0.049765 0.257709 -0.93092
2010-06-23 07:44:46 51°20.344 2°49.185 20.3336 0.054966 0.285297 -0.965744
2010-06-23 07:44:51 51°20.358 2°49.167 20.3392 0.053822 0.279229 -0.93092
2010-06-23 07:44:56 51°20.373 2°49.149 20.3419 0.053822 0.279229 -0.93092
2010-06-23 07:45:01 51°20.388 2°49.131 20.3343 0.054342 0.28203 -0.93092
2010-06-23 07:45:06 51°20.403 2°49.113 20.3427 0.063185 0.329259 -0.93092
2010-06-23 07:45:11 51°20.418 2°49.095 20.3401 0.052158 0.270441 -0.93092
2010-06-23 07:45:16 51°20.433 2°49.077 20.3463 0.050701 0.262709 -0.93092
2010-06-23 07:45:21 51°20.448 2°49.059 20.3365 0.055279 0.286987 -0.93092
2010-06-23 07:45:26 51°20.463 2°49.042 20.3419 0.055279 0.286987 -0.93092
2010-06-23 07:45:31 51°20.478 2°49.023 20.3292 0.051013 0.264342 -0.93092
2010-06-23 07:45:36 51°20.493 2°49.005 20.3556 0.056319 0.292518 -0.93092
2010-06-23 07:45:41 51°20.508 2°48.988 20.3434 0.055279 0.287 -0.93092
2010-06-23 07:45:46 51°20.523 2°48.97 20.3368 0.05299 0.274848 -0.93092
2010-06-23 07:45:51 51°20.538 2°48.951 20.3411 0.050909 0.26383 -0.93092
2010-06-23 07:45:56 51°20.553 2°48.934 20.3462 0.050909 0.26383 -0.93092
2010-06-23 07:46:01 51°20.568 2°48.916 20.3407 0.060168 0.313135 -0.93092
2010-06-23 07:46:06 51°20.583 2°48.898 20.3468 0.052158 0.270458 -0.93092
2010-06-23 07:46:11 51°20.598 2°48.88 20.3315 0.049453 0.25612 -0.93092
2010-06-23 07:46:16 51°20.613 2°48.862 20.3437 0.058087 0.301983 -0.896096
2010-06-23 07:46:21 51°20.628 2°48.844 20.3327 0.051638 0.26768 -0.896096
2010-06-23 07:46:26 51°20.643 2°48.826 20.3475 0.051638 0.26768 -0.896096
2010-06-23 07:46:31 51°20.658 2°48.808 20.3464 0.05247 0.272097 -0.93092
2010-06-23 07:46:36 51°20.673 2°48.79 20.352 0.053822 0.279292 -0.93092
2010-06-23 07:46:41 51°20.688 2°48.772 20.3601 0.052574 0.272661 -0.93092
2010-06-23 07:46:46 51°20.703 2°48.755 20.3437 0.054342 0.282051 -0.93092
2010-06-23 07:46:51 51°20.718 2°48.737 20.3496 0.056527 0.293662 -0.93092
2010-06-23 07:46:56 51°20.733 2°48.719 20.3517 0.056527 0.293662 -0.93092
2010-06-23 07:47:01 51°20.748 2°48.701 20.364 0.052366 0.271537 -0.93092
2010-06-23 07:47:06 51°20.763 2°48.684 20.3608 0.049765 0.257763 -0.93092
2010-06-23 07:47:11 51°20.778 2°48.666 20.3519 0.059752 0.310906 -0.93092
2010-06-23 07:47:16 51°20.793 2°48.649 20.3567 0.051638 0.267716 -0.93092
2010-06-23 07:47:21 51°20.808 2°48.631 20.3473 0.050597 0.262217 -0.93092
2010-06-23 07:47:26 51°20.823 2°48.613 20.3619 0.050597 0.262217 -0.93092
2010-06-23 07:47:31 51°20.838 2°48.596 20.3542 0.050493 0.261658 -0.93092
2010-06-23 07:47:36 51°20.853 2°48.578 20.3593 0.05299 0.274906 -0.896096
2010-06-23 07:47:40 51°20.865 2°48.564 20.3427 0.053718 0.278764 -0.93092
2010-06-23 07:47:46 51°20.883 2°48.543 20.363 0.051846 0.268819 -0.965744
2010-06-23 07:47:51 51°20.898 2°48.526 20.3469 0.052782 0.273801 -0.93092
2010-06-23 07:47:56 51°20.913 2°48.508 20.3526 0.052782 0.273801 -0.93092
2010-06-23 07:48:01 51°20.928 2°48.491 20.3377 0.052886 0.274362 -0.93092
2010-06-23 07:48:06 51°20.942 2°48.473 20.3691 0.049037 0.253962 -0.93092
2010-06-23 07:48:11 51°20.957 2°48.456 20.3716 0.058712 0.305383 -0.93092
2010-06-23 07:48:16 51°20.972 2°48.439 20.3719 0.050805 0.263303 -0.896096
2010-06-23 07:48:21 51°20.987 2°48.422 20.3624 0.056423 0.293143 -0.965744
2010-06-23 07:48:26 51°21.002 2°48.405 20.3558 0.056423 0.293143 -0.965744
2010-06-23 07:48:31 51°21.016 2°48.388 20.3616 0.05996 0.312028 -0.965744
2010-06-23 07:48:36 51°21.031 2°48.371 20.3779 0.05195 0.269379 -0.93092
2010-06-23 07:48:41 51°21.046 2°48.355 20.3698 0.055903 0.290386 -0.93092
2010-06-23 07:48:46 51°21.061 2°48.338 20.3749 0.056839 0.295377 -0.93092
2010-06-23 07:48:51 51°21.075 2°48.321 20.3597 0.049661 0.25727 -0.93092
2010-06-23 07:48:56 51°21.09 2°48.304 20.3768 0.049661 0.25727 -0.93092
2010-06-23 07:49:00 51°21.102 2°48.29 20.3666 0.052782 0.273814 -0.965744
2010-06-23 07:49:06 51°21.119 2°48.27 20.3535 0.058816 0.305966 -0.93092
2010-06-23 07:49:11 51°21.134 2°48.253 20.373 0.053822 0.279359 -0.896096
2010-06-23 07:49:16 51°21.149 2°48.236 20.3712 0.05403 0.280447 -0.93092
2010-06-23 07:49:21 51°21.164 2°48.219 20.38 0.053406 0.277136 -0.93092
2010-06-23 07:49:26 51°21.178 2°48.202 20.3769 0.053406 0.277136 -0.93092
2010-06-23 07:49:31 51°21.193 2°48.185 20.3528 0.052574 0.272718 -0.965744
2010-06-23 07:49:36 51°21.207 2°48.168 20.3736 0.051222 0.265535 -0.896096
2010-06-23 07:49:40 51°21.219 2°48.154 20.3771 0.05247 0.272162 -0.896096
2010-06-23 07:49:46 51°21.237 2°48.134 20.3883 0.057983 0.30151 -0.93092
2010-06-23 07:49:51 51°21.252 2°48.117 20.3719 0.051222 0.265531 -0.896096
2010-06-23 07:49:56 51°21.267 2°48.1 20.381 0.051222 0.265531 -0.896096
2010-06-23 07:50:00 51°21.278 2°48.086 20.3878 0.059232 0.308179 -0.896096
2010-06-23 07:50:06 51°21.296 2°48.066 20.3768 0.054342 0.282106 -0.93092
2010-06-23 07:50:11 51°21.311 2°48.049 20.3669 0.050285 0.260576 -0.965744
2010-06-23 07:50:16 51°21.326 2°48.032 20.3889 0.056215 0.292096 -0.93092
2010-06-23 07:50:20 51°21.338 2°48.018 20.3673 0.048205 0.249599 -0.93092
2010-06-23 07:50:26 51°21.355 2°47.998 20.3839 0.048205 0.249599 -0.93092
2010-06-23 07:50:31 51°21.37 2°47.981 20.3868 0.054654 0.283804 -0.896096
2010-06-23 07:50:36 51°21.385 2°47.964 20.3685 0.056111 0.291564 -0.93092
2010-06-23 07:50:40 51°21.397 2°47.95 20.3816 0.054966 0.285468 -0.93092
2010-06-23 07:50:46 51°21.414 2°47.93 20.3896 0.056423 0.293209 -0.93092
2010-06-23 07:50:51 51°21.429 2°47.913 20.3874 0.050805 0.263346 -0.965744
2010-06-23 07:50:56 51°21.444 2°47.896 20.3648 0.050805 0.263346 -0.965744
2010-06-23 07:51:00 51°21.456 2°47.882 20.361 0.052262 0.271078 -0.93092
2010-06-23 07:51:06 51°21.474 2°47.864 20.3834 0.057983 0.30151 -0.965744
2010-06-23 07:51:11 51°21.489 2°47.847 20.3504 0.046853 0.242455 -0.93092
2010-06-23 07:51:16 51°21.504 2°47.832 20.3849 0.064017 0.333842 -0.93092
2010-06-23 07:51:20 51°21.517 2°47.82 20.3606 0.054862 0.284944 -0.93092
2010-06-23 07:51:26 51°21.535 2°47.802 20.3802 0.054862 0.284944 -0.93092
2010-06-23 07:51:31 51°21.551 2°47.787 20.3811 0.05247 0.27221 -0.93092
2010-06-23 07:51:36 51°21.567 2°47.773 20.3803 0.051534 0.267244 -0.93092
2010-06-23 07:51:40 51°21.579 2°47.761 20.3934 0.057463 0.29878 -0.93092
2010-06-23 07:51:46 51°21.598 2°47.744 20.3769 0.058816 0.306016 -0.93092
2010-06-23 07:51:51 51°21.614 2°47.729 20.3892 0.057151 0.297139 -0.965744
2010-06-23 07:51:56 51°21.63 2°47.715 20.3823 0.057151 0.297139 -0.965744
2010-06-23 07:52:00 51°21.642 2°47.703 20.3859 0.05455 0.283289 -0.93092
2010-06-23 07:52:06 51°21.661 2°47.686 20.388 0.050909 0.263944 -0.896096
2010-06-23 07:52:11 51°21.677 2°47.672 20.3846 0.062041 0.323299 -0.965744
2010-06-23 07:52:16 51°21.693 2°47.657 20.3816 0.057671 0.29994 -0.93092
2010-06-23 07:52:20 51°21.706 2°47.646 20.3824 0.056631 0.294375 -0.93092
2010-06-23 07:52:26 51°21.724 2°47.628 20.3748 0.056631 0.294375 -0.93092
2010-06-23 07:52:31 51°21.74 2°47.613 20.3884 0.056943 0.296029 -0.93092
2010-06-23 07:52:36 51°21.756 2°47.599 20.3688 0.055175 0.286618 -0.965744
2010-06-23 07:52:40 51°21.769 2°47.587 20.3846 0.054238 0.281625 -0.93092
2010-06-23 07:52:46 51°21.788 2°47.57 20.3936 0.065266 0.34061 -0.896096
2010-06-23 07:52:51 51°21.804 2°47.556 20.3992 0.056943 0.296087 -0.965744
2010-06-23 07:52:56 51°21.819 2°47.541 20.3987 0.056943 0.296087 -0.965744
2010-06-23 07:53:00 51°21.832 2°47.53 20.3998 0.053822 0.279446 -0.896096
2010-06-23 07:53:06 51°21.851 2°47.512 20.3958 0.053094 0.275565 -0.93092
2010-06-23 07:53:11 51°21.867 2°47.498 20.4094 0.056527 0.293838 -0.93092
2010-06-23 07:53:16 51°21.883 2°47.483 20.3924 0.051326 0.266193 -0.93092
2010-06-23 07:53:20 51°21.896 2°47.472 20.3998 0.060168 0.313314 -0.965744
2010-06-23 07:53:26 51°21.914 2°47.454 20.4014 0.060168 0.313314 -0.965744
2010-06-23 07:53:31 51°21.93 2°47.439 20.4004 0.056423 0.293319 -0.93092
2010-06-23 07:53:36 51°21.946 2°47.424 20.4046 0.060064 0.312753 -0.93092
2010-06-23 07:53:40 51°21.958 2°47.412 20.3957 0.050805 0.263444 -0.965744
2010-06-23 07:53:46 51°21.977 2°47.394 20.4117 0.054446 0.282761 -0.965744
2010-06-23 07:53:51 51°21.993 2°47.38 20.4124 0.05351 0.277771 -0.965744
2010-06-23 07:53:56 51°22.009 2°47.365 20.4056 0.05351 0.277771 -0.965744
2010-06-23 07:54:00 51°22.021 2°47.354 20.4093 0.057151 0.297134 -0.93092
2010-06-23 07:54:06 51°22.04 2°47.336 20.4133 0.054966 0.285481 -0.896096
2010-06-23 07:54:11 51°22.056 2°47.321 20.4075 0.058816 0.306035 -0.965744
2010-06-23 07:54:16 51°22.071 2°47.306 20.3966 0.053926 0.279983 -0.93092
2010-06-23 07:54:20 51°22.084 2°47.294 20.4067 0.060584 0.315531 -0.93092
2010-06-23 07:54:26 51°22.103 2°47.276 20.4234 0.060584 0.315531 -0.93092
2010-06-23 07:54:31 51°22.118 2°47.261 20.4392 0.055903 0.290512 -0.93092
2010-06-23 07:54:36 51°22.134 2°47.247 20.4409 0.060792 0.316663 -0.93092
2010-06-23 07:54:40 51°22.146 2°47.233 20.4153 0.061104 0.318329 -0.93092
2010-06-23 07:54:46 51°22.164 2°47.215 20.4258 0.069115 0.361306 -0.93092
2010-06-23 07:54:51 51°22.179 2°47.198 20.4225 0.051222 0.265602 -0.93092
2010-06-23 07:54:56 51°22.194 2°47.182 20.4186 0.051222 0.265602 -0.93092
2010-06-23 07:55:00 51°22.206 2°47.167 20.4311 0.057671 0.299922 -0.93092
2010-06-23 07:55:06 51°22.223 2°47.147 20.4285 0.055487 0.288275 -0.93092
2010-06-23 07:55:11 51°22.238 2°47.129 20.4333 0.064642 0.337242 -0.93092
2010-06-23 07:55:16 51°22.252 2°47.112 20.4098 0.054238 0.281625 -0.965744
2010-06-23 07:55:20 51°22.264 2°47.098 20.426 0.061624 0.321056 -0.965744
2010-06-23 07:55:26 51°22.281 2°47.077 20.4314 0.061624 0.321056 -0.965744
2010-06-23 07:55:31 51°22.295 2°47.059 20.4268 0.056111 0.291599 -0.93092
2010-06-23 07:55:36 51°22.31 2°47.041 20.4338 0.060792 0.316606 -0.93092
2010-06-23 07:55:40 51°22.321 2°47.027 20.4312 0.065266 0.340605 -0.965744
2010-06-23 07:55:46 51°22.339 2°47.006 20.4293 0.050077 0.259556 -0.93092
2010-06-23 07:55:51 51°22.353 2°46.988 20.4354 0.063497 0.331111 -0.896096
2010-06-23 07:55:56 51°22.368 2°46.971 20.4191 0.063497 0.331111 -0.896096
2010-06-23 07:56:00 51°22.379 2°46.957 20.4465 0.065058 0.339457 -0.896096
2010-06-23 07:56:06 51°22.397 2°46.936 20.4444 0.05299 0.274988 -0.965744
2010-06-23 07:56:11 51°22.411 2°46.918 20.4305 0.061 0.317719 -0.93092
2010-06-23 07:56:16 51°22.425 2°46.901 20.4428 0.052054 0.270055 -0.965744
2010-06-23 07:56:20 51°22.437 2°46.887 20.4326 0.050909 0.264003 -0.93092
2010-06-23 07:56:26 51°22.454 2°46.866 20.4263 0.050909 0.264003 -0.93092
2010-06-23 07:56:31 51°22.469 2°46.848 20.4064 0.057255 0.297756 -0.965744
2010-06-23 07:56:36 51°22.483 2°46.83 20.4377 0.051638 0.267868 -0.965744
2010-06-23 07:56:40 51°22.495 2°46.816 20.4502 0.05996 0.312234 -0.965744
2010-06-23 07:56:46 51°22.512 2°46.795 20.44 0.055695 0.289474 -0.93092
2010-06-23 07:56:51 51°22.526 2°46.777 20.4486 0.058295 0.303344 -0.965744
2010-06-23 07:56:56 51°22.541 2°46.76 20.454 0.058295 0.303344 -0.965744
2010-06-23 07:57:00 51°22.552 2°46.746 20.4467 0.058399 0.303886 -0.93092
2010-06-23 07:57:06 51°22.57 2°46.725 20.4552 0.052782 0.273936 -0.93092
2010-06-23 07:57:11 51°22.584 2°46.707 20.4372 0.055175 0.286635 -0.896096
2010-06-23 07:57:16 51°22.599 2°46.69 20.4444 0.055175 0.286644 -0.896096
2010-06-23 07:57:20 51°22.61 2°46.676 20.4343 0.053718 0.27891 -0.93092
2010-06-23 07:57:26 51°22.628 2°46.655 20.4323 0.053718 0.27891 -0.93092
2010-06-23 07:57:31 51°22.642 2°46.638 20.4503 0.051222 0.265665 -0.896096
2010-06-23 07:57:36 51°22.657 2°46.621 20.46 0.050181 0.260169 -0.93092
2010-06-23 07:57:40 51°22.669 2°46.607 20.4566 0.056423 0.293376 -0.93092
2010-06-23 07:57:46 51°22.686 2°46.587 20.4328 0.049973 0.259091 -0.93092
2010-06-23 07:57:51 51°22.701 2°46.57 20.4237 0.059648 0.310575 -0.965744
2010-06-23 07:57:56 51°22.715 2°46.552 20.4607 0.059648 0.310575 -0.965744
2010-06-23 07:58:00 51°22.727 2°46.538 20.4626 0.050805 0.263448 -0.93092
2010-06-23 07:58:06 51°22.744 2°46.517 20.4672 0.052886 0.274497 -0.93092
2010-06-23 07:58:11 51°22.758 2°46.499 20.4564 0.063289 0.3301 -0.93092
2010-06-23 07:58:16 51°22.772 2°46.481 20.4618 0.069844 0.36542 -0.93092
2010-06-23 07:58:20 51°22.784 2°46.466 20.4511 0.056735 0.295084 -0.965744
2010-06-23 07:58:26 51°22.8 2°46.443 20.4693 0.056735 0.295084 -0.965744
2010-06-23 07:58:31 51°22.814 2°46.425 20.4433 0.054966 0.285631 -0.93092
2010-06-23 07:58:36 51°22.827 2°46.405 20.4701 0.059128 0.307804 -0.93092
2010-06-23 07:58:40 51°22.839 2°46.39 20.4532 0.052574 0.272852 -0.93092
2010-06-23 07:58:46 51°22.855 2°46.367 20.4255 0.047061 0.243682 -0.965744
2010-06-23 07:58:51 51°22.869 2°46.348 20.4508 0.06974 0.364881 -0.93092
2010-06-23 07:58:56 51°22.882 2°46.328 20.4556 0.06974 0.364881 -0.93092
2010-06-23 07:59:00 51°22.894 2°46.313 20.4642 0.05351 0.277912 -0.93092
2010-06-23 07:59:06 51°22.91 2°46.29 20.4613 0.050389 0.261318 -0.93092
2010-06-23 07:59:11 51°22.924 2°46.27 20.4558 0.057775 0.300576 -0.93092
2010-06-23 07:59:16 51°22.938 2°46.251 20.4558 0.056423 0.293371 -0.93092
2010-06-23 07:59:20 51°22.949 2°46.236 20.4623 0.060896 0.317287 -0.93092
2010-06-23 07:59:26 51°22.965 2°46.212 20.4701 0.060896 0.317287 -0.93092
2010-06-23 07:59:31 51°22.979 2°46.193 20.4465 0.058503 0.304515 -0.93092
2010-06-23 07:59:36 51°22.993 2°46.174 20.4762 0.051742 0.268508 -0.93092
2010-06-23 07:59:41 51°23.006 2°46.154 20.4706 0.062665 0.326802 -0.93092
2010-06-23 07:59:46 51°23.02 2°46.135 20.4667 0.055591 0.288985 -0.93092
2010-06-23 07:59:51 51°23.034 2°46.116 20.4507 0.05507 0.286193 -0.896096
2010-06-23 07:59:56 51°23.047 2°46.096 20.4726 0.05507 0.286193 -0.896096
2010-06-23 08:00:01 51°23.061 2°46.077 20.4558 0.053198 0.276221 -0.93092
2010-06-23 08:00:06 51°23.075 2°46.057 20.4708 0.052678 0.273474 -0.93092
2010-06-23 08:00:11 51°23.089 2°46.038 20.4701 0.06693 0.349728 -0.93092
2010-06-23 08:00:16 51°23.103 2°46.019 20.4691 0.052782 0.274055 -0.93092
2010-06-23 08:00:21 51°23.117 2°45.999 20.4689 0.055695 0.289547 -0.93092
2010-06-23 08:00:26 51°23.13 2°45.98 20.4672 0.055695 0.289547 -0.93092
2010-06-23 08:00:31 51°23.144 2°45.96 20.46 0.05403 0.280666 -0.93092
2010-06-23 08:00:36 51°23.158 2°45.941 20.468 0.052158 0.270708 -0.93092
2010-06-23 08:00:41 51°23.171 2°45.922 20.4772 0.055175 0.286764 -0.965744
2010-06-23 08:00:47 51°23.188 2°45.899 20.4728 0.052262 0.271277 -0.965744
2010-06-23 08:00:51 51°23.199 2°45.883 20.4794 0.060792 0.316782 -0.965744
2010-06-23 08:00:56 51°23.213 2°45.864 20.4745 0.060792 0.316782 -0.965744
2010-06-23 08:01:01 51°23.226 2°45.844 20.4546 0.052574 0.272966 -0.93092
2010-06-23 08:01:06 51°23.24 2°45.824 20.4821 0.053094 0.275734 -0.93092
2010-06-23 08:01:11 51°23.254 2°45.805 20.4825 0.060688 0.316259 -0.93092
2010-06-23 08:01:16 51°23.267 2°45.785 20.4756 0.053198 0.27625 -0.93092
2010-06-23 08:01:21 51°23.281 2°45.766 20.4582 0.056735 0.295088 -0.93092
2010-06-23 08:01:26 51°23.295 2°45.746 20.4867 0.056735 0.295088 -0.93092
2010-06-23 08:01:31 51°23.309 2°45.727 20.4924 0.052366 0.271817 -0.93092
2010-06-23 08:01:36 51°23.322 2°45.707 20.4942 0.05351 0.277921 -0.93092
2010-06-23 08:01:41 51°23.336 2°45.688 20.4828 0.054862 0.285128 -0.93092
2010-06-23 08:01:46 51°23.35 2°45.668 20.4824 0.052886 0.27462 -0.93092
2010-06-23 08:01:52 51°23.366 2°45.644 20.4543 0.050701 0.263019 -0.965744
2010-06-23 08:01:56 51°23.377 2°45.629 20.4667 0.050701 0.263019 -0.965744
2010-06-23 08:02:01 51°23.391 2°45.609 20.4865 0.058191 0.302884 -0.896096
2010-06-23 08:02:06 51°23.405 2°45.59 20.4912 0.049349 0.255855 -0.896096
2010-06-23 08:02:11 51°23.419 2°45.57 20.4816 0.063185 0.329656 -0.93092
2010-06-23 08:02:16 51°23.433 2°45.551 20.4781 0.058087 0.302369 -0.93092
2010-06-23 08:02:21 51°23.446 2°45.531 20.4983 0.062561 0.326278 -0.93092
2010-06-23 08:02:26 51°23.46 2°45.512 20.4883 0.062561 0.326278 -0.93092
2010-06-23 08:02:31 51°23.474 2°45.492 20.5085 0.048621 0.251992 -0.965744
2010-06-23 08:02:36 51°23.488 2°45.473 20.4797 0.062041 0.323514 -0.93092
2010-06-23 08:02:41 51°23.502 2°45.454 20.5042 0.058399 0.304014 -0.93092
2010-06-23 08:02:46 51°23.516 2°45.435 20.5031 0.06048 0.315169 -0.896096
2010-06-23 08:02:51 51°23.529 2°45.416 20.4932 0.054342 0.282406 -0.93092
2010-06-23 08:02:56 51°23.544 2°45.397 20.4809 0.054342 0.282406 -0.93092